Observation data for Umbarger on 08/14/2019      Previous  Date  Next       Current Mesonet Observations  Soil Data  Daily Summary Page  Observations in Plain Language
KUM1 140500Z 12010KT 24/17 A3019 RMK A01 T02350172  RH  068%=      5-min Rain = 0
KUM1 140501Z 12010KT 24/17 A3019 RMK A01 T02350172  RH  068%=      5-min Rain = 0
KUM1 140502Z 12010KT 24/17 A3019 RMK A01 T02350172  RH  068%=      5-min Rain = 0
KUM1 140503Z 12009KT 24/17 A3019 RMK A01 T02350172  RH  068%=      5-min Rain = 0
KUM1 140504Z 12008KT 24/17 A3019 RMK A01 T02350172  RH  068%=      5-min Rain = 0
KUM1 140505Z 11008KT 24/17 A3019 RMK A01 T02350172  RH  068%=      5-min Rain = 0
KUM1 140506Z 11008KT 23/17 A3019 RMK A01 T02340171  RH  068%=      5-min Rain = 0
KUM1 140507Z 11008KT 23/17 A3019 RMK A01 T02340172  RH  068%=      5-min Rain = 0
KUM1 140508Z 11008KT 23/17 A3019 RMK A01 T02340171  RH  068%=      5-min Rain = 0
KUM1 140509Z 11008KT 23/17 A3019 RMK A01 T02330171  RH  068%=      5-min Rain = 0
KUM1 140510Z 12008KT 23/17 A3019 RMK A01 T02330172  RH  068%=      5-min Rain = 0
KUM1 140524Z 11006KT 23/17 A3021 RMK A01 T02300171  RH  069%=      5-min Rain = 0
KUM1 140525Z 10006KT 23/17 A3021 RMK A01 T02300171  RH  069%=      5-min Rain = 0
KUM1 140526Z 10006KT 23/17 A3021 RMK A01 T02290170  RH  070%=      5-min Rain = 0
KUM1 140527Z 10005KT 23/17 A3021 RMK A01 T02280170  RH  070%=      5-min Rain = 0
KUM1 140528Z 10005KT 23/17 A3021 RMK A01 T02270170  RH  070%=      5-min Rain = 0
KUM1 140529Z 10005KT 23/17 A3021 RMK A01 T02270170  RH  070%=      5-min Rain = 0
KUM1 140530Z 09006KT 23/17 A3021 RMK A01 T02260170  RH  071%=      5-min Rain = 0
KUM1 140531Z 10006KT 23/17 A3021 RMK A01 T02250170  RH  071%=      5-min Rain = 0
KUM1 140532Z 10006KT 23/17 A3021 RMK A01 T02250170  RH  071%=      5-min Rain = 0
KUM1 140533Z 09006KT 23/17 A3021 RMK A01 T02250170  RH  071%=      5-min Rain = 0
KUM1 140534Z 10006KT 22/17 A3021 RMK A01 T02240170  RH  071%=      5-min Rain = 0
KUM1 140535Z 09007KT 22/17 A3021 RMK A01 T02240170  RH  071%=      5-min Rain = 0
KUM1 140536Z 09008KT 22/17 A3022 RMK A01 T02230170  RH  072%=      5-min Rain = 0
KUM1 140537Z 09007KT 22/17 A3022 RMK A01 T02230170  RH  072%=      5-min Rain = 0
KUM1 140538Z 10007KT 22/17 A3022 RMK A01 T02230170  RH  072%=      5-min Rain = 0
KUM1 140539Z 09008KT 22/17 A3022 RMK A01 T02230170  RH  072%=      5-min Rain = 0
KUM1 140540Z 09008KT 22/17 A3022 RMK A01 T02240170  RH  072%=      5-min Rain = 0
KUM1 140541Z 09008KT 22/17 A3022 RMK A01 T02240170  RH  072%=      5-min Rain = 0
KUM1 140542Z 09008KT 22/17 A3022 RMK A01 T02240170  RH  072%=      5-min Rain = 0
KUM1 140543Z 09008KT 22/17 A3022 RMK A01 T02240171  RH  072%=      5-min Rain = 0
KUM1 140544Z 09008KT 22/17 A3022 RMK A01 T02240171  RH  072%=      5-min Rain = 0
KUM1 140545Z 09008KT 22/17 A3022 RMK A01 T02230171  RH  072%=      5-min Rain = 0
KUM1 140546Z 08009KT 22/17 A3022 RMK A01 T02230172  RH  073%=      5-min Rain = 0
KUM1 140547Z 08009KT 22/17 A3022 RMK A01 T02230172  RH  073%=      5-min Rain = 0
KUM1 140548Z 08008KT 22/17 A3023 RMK A01 T02240172  RH  073%=      5-min Rain = 0
KUM1 140549Z 08008KT 22/17 A3023 RMK A01 T02240173  RH  073%=      5-min Rain = 0
KUM1 140550Z 08009KT 22/17 A3023 RMK A01 T02240173  RH  073%=      5-min Rain = 0
KUM1 140551Z 07008KT 22/17 A3023 RMK A01 T02230173  RH  073%=      5-min Rain = 0
KUM1 140552Z 08008KT 22/17 A3023 RMK A01 T02230173  RH  073%=      5-min Rain = 0
KUM1 140553Z 07008KT 22/17 A3023 RMK A01 T02230173  RH  073%=      5-min Rain = 0
KUM1 140554Z 07009KT 22/17 A3023 RMK A01 T02230173  RH  073%=      5-min Rain = 0
KUM1 140555Z 07009KT 22/17 A3023 RMK A01 T02230172  RH  073%=      5-min Rain = 0
KUM1 140556Z 07009KT 22/17 A3023 RMK A01 T02230172  RH  073%=      5-min Rain = 0
KUM1 140557Z 07010KT 22/17 A3023 RMK A01 T02240173  RH  073%=      5-min Rain = 0
KUM1 140558Z 08009KT 22/17 A3023 RMK A01 T02240173  RH  073%=      5-min Rain = 0
KUM1 140559Z 08009KT 23/17 A3023 RMK A01 T02250173  RH  072%=      5-min Rain = 0
KUM1 140600Z 08009KT 23/17 A3023 RMK A01 T02260173  RH  072%=      5-min Rain = 0
KUM1 140601Z 08010KT 23/17 A3023 RMK A01 T02270174  RH  072%=      5-min Rain = 0
KUM1 140602Z 09010KT 23/17 A3023 RMK A01 T02280174  RH  072%=      5-min Rain = 0
KUM1 140603Z 09009KT 23/17 A3023 RMK A01 T02280174  RH  071%=      5-min Rain = 0
KUM1 140604Z 09010KT 23/18 A3023 RMK A01 T02290175  RH  071%=      5-min Rain = 0
KUM1 140605Z 09010KT 23/17 A3022 RMK A01 T02300174  RH  071%=      5-min Rain = 0
KUM1 140606Z 09008KT 23/17 A3022 RMK A01 T02300174  RH  071%=      5-min Rain = 0
KUM1 140607Z 10007KT 23/18 A3022 RMK A01 T02310175  RH  071%=      5-min Rain = 0
KUM1 140608Z 10007KT 23/17 A3022 RMK A01 T02300174  RH  071%=      5-min Rain = 0
KUM1 140609Z 10007KT 23/17 A3022 RMK A01 T02310174  RH  071%=      5-min Rain = 0
KUM1 140610Z 10006KT 23/17 A3022 RMK A01 T02300174  RH  071%=      5-min Rain = 0
KUM1 140611Z 10007KT 23/17 A3022 RMK A01 T02300174  RH  071%=      5-min Rain = 0
KUM1 140612Z 10007KT 23/17 A3022 RMK A01 T02290174  RH  071%=      5-min Rain = 0
KUM1 140613Z 10007KT 23/17 A3022 RMK A01 T02290174  RH  071%=      5-min Rain = 0
KUM1 140614Z 09007KT 23/17 A3023 RMK A01 T02290174  RH  071%=      5-min Rain = 0
KUM1 140615Z 09008KT 23/17 A3023 RMK A01 T02290174  RH  071%=      5-min Rain = 0
KUM1 140616Z 09007KT 23/17 A3023 RMK A01 T02280174  RH  071%=      5-min Rain = 0
KUM1 140617Z 08006KT 23/17 A3023 RMK A01 T02280174  RH  072%=      5-min Rain = 0
KUM1 140618Z 07006KT 23/17 A3024 RMK A01 T02270173  RH  072%=      5-min Rain = 0
KUM1 140619Z 07007KT 23/17 A3024 RMK A01 T02260174  RH  072%=      5-min Rain = 0
KUM1 140620Z 08007KT 23/17 A3024 RMK A01 T02250174  RH  073%=      5-min Rain = 0
KUM1 140621Z 07007KT 23/17 A3024 RMK A01 T02250174  RH  073%=      5-min Rain = 0
KUM1 140622Z 08006KT 23/17 A3024 RMK A01 T02250174  RH  073%=      5-min Rain = 0
KUM1 140623Z 08006KT 23/18 A3024 RMK A01 T02250175  RH  073%=      5-min Rain = 0
KUM1 140624Z 08006KT 23/18 A3023 RMK A01 T02250175  RH  073%=      5-min Rain = 0
KUM1 140625Z 09006KT 23/17 A3023 RMK A01 T02250174  RH  073%=      5-min Rain = 0
KUM1 140626Z 09006KT 22/17 A3023 RMK A01 T02240174  RH  073%=      5-min Rain = 0
KUM1 140627Z 09005KT 22/17 A3023 RMK A01 T02240174  RH  073%=      5-min Rain = 0
KUM1 140628Z 09007KT 22/17 A3023 RMK A01 T02240174  RH  073%=      5-min Rain = 0
KUM1 140629Z 09006KT 22/17 A3023 RMK A01 T02240174  RH  073%=      5-min Rain = 0
KUM1 140630Z 09006KT 22/17 A3023 RMK A01 T02240174  RH  073%=      5-min Rain = 0
KUM1 140631Z 09005KT 23/17 A3023 RMK A01 T02250174  RH  073%=      5-min Rain = 0
KUM1 140632Z 10006KT 22/17 A3023 RMK A01 T02240174  RH  073%=      5-min Rain = 0
KUM1 140633Z 10005KT 22/17 A3023 RMK A01 T02240174  RH  073%=      5-min Rain = 0
KUM1 140634Z 11004KT 22/17 A3023 RMK A01 T02230174  RH  074%=      5-min Rain = 0
KUM1 140635Z 11004KT 22/17 A3023 RMK A01 T02230174  RH  074%=      5-min Rain = 0
KUM1 140636Z 11004KT 22/17 A3023 RMK A01 T02220173  RH  074%=      5-min Rain = 0
KUM1 140637Z 11004KT 22/17 A3023 RMK A01 T02220173  RH  074%=      5-min Rain = 0
KUM1 140638Z 11004KT 22/17 A3023 RMK A01 T02210173  RH  074%=      5-min Rain = 0
KUM1 140639Z 10004KT 22/17 A3023 RMK A01 T02200173  RH  074%=      5-min Rain = 0
KUM1 140640Z 10003KT 22/17 A3023 RMK A01 T02200173  RH  075%=      5-min Rain = 0
KUM1 140641Z 10005KT 22/17 A3023 RMK A01 T02200173  RH  075%=      5-min Rain = 0
KUM1 140642Z 09005KT 22/17 A3023 RMK A01 T02190173  RH  075%=      5-min Rain = 0
KUM1 140643Z 09004KT 22/17 A3023 RMK A01 T02180172  RH  075%=      5-min Rain = 0
KUM1 140644Z 08004KT 22/17 A3023 RMK A01 T02180173  RH  075%=      5-min Rain = 0
KUM1 140645Z 08003KT 22/17 A3023 RMK A01 T02170172  RH  075%=      5-min Rain = 0
KUM1 140646Z 08003KT 22/17 A3023 RMK A01 T02170172  RH  076%=      5-min Rain = 0
KUM1 140647Z 08003KT 22/17 A3023 RMK A01 T02160172  RH  076%=      5-min Rain = 0
KUM1 140648Z 08002KT 22/17 A3023 RMK A01 T02160172  RH  076%=      5-min Rain = 0
KUM1 140649Z 09002KT 22/17 A3023 RMK A01 T02150172  RH  076%=      5-min Rain = 0
KUM1 140650Z 10003KT 22/17 A3023 RMK A01 T02150172  RH  076%=      5-min Rain = 0
KUM1 140651Z 10003KT 22/17 A3023 RMK A01 T02150172  RH  077%=      5-min Rain = 0
KUM1 140652Z 11003KT 22/17 A3023 RMK A01 T02150172  RH  077%=      5-min Rain = 0
KUM1 140653Z 11004KT 22/17 A3022 RMK A01 T02160172  RH  076%=      5-min Rain = 0
KUM1 140654Z 12004KT 22/17 A3022 RMK A01 T02160172  RH  076%=      5-min Rain = 0
KUM1 140655Z 12004KT 22/17 A3022 RMK A01 T02160172  RH  076%=      5-min Rain = 0
KUM1 140656Z 11004KT 22/17 A3022 RMK A01 T02160171  RH  075%=      5-min Rain = 0
KUM1 140657Z 11004KT 22/17 A3022 RMK A01 T02150170  RH  075%=      5-min Rain = 0
KUM1 140658Z 10004KT 22/17 A3022 RMK A01 T02150171  RH  076%=      5-min Rain = 0
KUM1 140659Z 10004KT 22/17 A3022 RMK A01 T02150171  RH  076%=      5-min Rain = 0
KUM1 140700Z 10005KT 22/17 A3022 RMK A01 T02150171  RH  076%=      5-min Rain = 0
KUM1 140701Z 10004KT 22/17 A3022 RMK A01 T02160171  RH  076%=      5-min Rain = 0
KUM1 140702Z 11004KT 22/17 A3022 RMK A01 T02150171  RH  076%=      5-min Rain = 0
KUM1 140703Z 11004KT 22/17 A3022 RMK A01 T02150171  RH  076%=      5-min Rain = 0
KUM1 140704Z 11005KT 22/17 A3022 RMK A01 T02150171  RH  076%=      5-min Rain = 0
KUM1 140705Z 11005KT 22/17 A3022 RMK A01 T02150172  RH  076%=      5-min Rain = 0
KUM1 140706Z 12006KT 22/17 A3022 RMK A01 T02150171  RH  076%=      5-min Rain = 0
KUM1 140707Z 11006KT 22/17 A3021 RMK A01 T02150171  RH  076%=      5-min Rain = 0
KUM1 140708Z 11006KT 22/17 A3021 RMK A01 T02150171  RH  076%=      5-min Rain = 0
KUM1 140709Z 11006KT 21/17 A3021 RMK A01 T02140171  RH  076%=      5-min Rain = 0
KUM1 140710Z 11006KT 21/17 A3021 RMK A01 T02140171  RH  076%=      5-min Rain = 0
KUM1 140711Z 11006KT 21/17 A3021 RMK A01 T02130170  RH  077%=      5-min Rain = 0
KUM1 140712Z 11006KT 21/17 A3021 RMK A01 T02130171  RH  077%=      5-min Rain = 0
KUM1 140713Z 11005KT 21/17 A3021 RMK A01 T02130171  RH  077%=      5-min Rain = 0
KUM1 140714Z 10005KT 21/17 A3021 RMK A01 T02130171  RH  077%=      5-min Rain = 0
KUM1 140715Z 09005KT 21/17 A3021 RMK A01 T02130171  RH  077%=      5-min Rain = 0
KUM1 140716Z 08007KT 21/17 A3022 RMK A01 T02130171  RH  077%=      5-min Rain = 0
KUM1 140717Z 06011G16KT 21/17 A3023 RMK A01 T02130170  RH  077%=      5-min Rain = 0
KUM1 140718Z 06015KT 21/17 A3023 RMK A01 T02100170  RH  078%=      5-min Rain = 0
KUM1 140719Z 05014KT 21/17 A3023 RMK A01 T02090172  RH  079%=      5-min Rain = 0
KUM1 140720Z 05014KT 21/17 A3023 RMK A01 T02090173  RH  079%=      5-min Rain = 0
KUM1 140721Z 05017KT 21/17 A3023 RMK A01 T02090174  RH  080%=      5-min Rain = 0
KUM1 140722Z 05014KT 21/18 A3023 RMK A01 T02100175  RH  081%=      5-min Rain = 0
KUM1 140723Z 06014KT 21/18 A3023 RMK A01 T02100175  RH  081%=      5-min Rain = 0
KUM1 140724Z 05016KT 21/17 A3023 RMK A01 T02100174  RH  080%=      5-min Rain = 0
KUM1 140725Z 06016KT 21/17 A3023 RMK A01 T02090171  RH  079%=      5-min Rain = 0
KUM1 140726Z 07016KT 21/17 A3023 RMK A01 T02080168  RH  078%=      5-min Rain = 0
KUM1 140727Z 06015KT 21/17 A3023 RMK A01 T02070166  RH  077%=      5-min Rain = 0
KUM1 140728Z 06016KT 21/17 A3023 RMK A01 T02060165  RH  077%=      5-min Rain = 0
KUM1 140729Z 06017KT 21/16 A3023 RMK A01 T02050164  RH  077%=      5-min Rain = 0
KUM1 140730Z 06016KT 21/16 A3023 RMK A01 T02050163  RH  077%=      5-min Rain = 0
KUM1 140731Z 06016KT 21/16 A3024 RMK A01 T02050163  RH  077%=      5-min Rain = 0
KUM1 140732Z 05014G20KT 20/16 A3024 RMK A01 T02040163  RH  077%=      5-min Rain = 0
KUM1 140733Z 06018KT 20/16 A3024 RMK A01 T02040160  RH  076%=      5-min Rain = 0
KUM1 140734Z 06018KT 20/16 A3024 RMK A01 T02020156  RH  075%=      5-min Rain = 0
KUM1 140735Z 06017KT 20/16 A3024 RMK A01 T02010155  RH  074%=      5-min Rain = 0
KUM1 140736Z 06016KT 20/15 A3024 RMK A01 T02010153  RH  074%=      5-min Rain = 0
KUM1 140737Z 06015KT 20/15 A3024 RMK A01 T02000151  RH  073%=      5-min Rain = 0
KUM1 140738Z 06015KT 20/15 A3024 RMK A01 T01990150  RH  073%=      5-min Rain = 0
KUM1 140739Z 07015KT 20/15 A3024 RMK A01 T01990148  RH  073%=      5-min Rain = 0
KUM1 140740Z 07016KT 20/15 A3024 RMK A01 T01980147  RH  073%=      5-min Rain = 0
KUM1 140741Z 07015KT 20/15 A3024 RMK A01 T01980147  RH  073%=      5-min Rain = 0
KUM1 140742Z 07015KT 20/15 A3024 RMK A01 T01970147  RH  073%=      5-min Rain = 0
KUM1 140743Z 07016KT 20/15 A3024 RMK A01 T01970147  RH  073%=      5-min Rain = 0
KUM1 140744Z 07017KT 20/15 A3024 RMK A01 T01970146  RH  073%=      5-min Rain = 0
KUM1 140745Z 07016KT 20/15 A3024 RMK A01 T01970146  RH  072%=      5-min Rain = 0
KUM1 140746Z 07013KT 20/15 A3024 RMK A01 T01970146  RH  072%=      5-min Rain = 0
KUM1 140747Z 07015G21KT 20/15 A3024 RMK A01 T01970146  RH  073%=      5-min Rain = 0
KUM1 140748Z 07015G21KT 20/15 A3023 RMK A01 T01960146  RH  073%=      5-min Rain = 0
KUM1 140749Z 07013KT 20/15 A3023 RMK A01 T01960146  RH  073%=      5-min Rain = 0
KUM1 140750Z 07012KT 20/15 A3023 RMK A01 T01960146  RH  073%=      5-min Rain = 0
KUM1 140751Z 07013KT 20/15 A3023 RMK A01 T01950146  RH  073%=      5-min Rain = 0
KUM1 140752Z 08010KT 20/15 A3023 RMK A01 T01950146  RH  073%=      5-min Rain = 0
KUM1 140753Z 08012KT 19/15 A3023 RMK A01 T01940146  RH  073%=      5-min Rain = 0
KUM1 140754Z 08012KT 19/15 A3023 RMK A01 T01940146  RH  073%=      5-min Rain = 0
KUM1 140755Z 08011KT 19/15 A3023 RMK A01 T01940145  RH  073%=      5-min Rain = 0
KUM1 140756Z 07011KT 19/15 A3023 RMK A01 T01940145  RH  074%=      5-min Rain = 0
KUM1 140757Z 08011KT 19/15 A3023 RMK A01 T01930145  RH  074%=      5-min Rain = 0
KUM1 140758Z 08012KT 19/15 A3023 RMK A01 T01930145  RH  074%=      5-min Rain = 0
KUM1 140759Z 08009KT 19/15 A3023 RMK A01 T01930145  RH  074%=      5-min Rain = 0
KUM1 140800Z 08012KT 19/15 A3023 RMK A01 T01920145  RH  074%=      5-min Rain = 0
KUM1 140801Z 08012KT 19/15 A3022 RMK A01 T01920145  RH  074%=      5-min Rain = 0
KUM1 140802Z 08011KT 19/15 A3022 RMK A01 T01920145  RH  074%=      5-min Rain = 0
KUM1 140803Z 08011KT 19/15 A3022 RMK A01 T01920145  RH  074%=      5-min Rain = 0
KUM1 140804Z 09010KT 19/15 A3022 RMK A01 T01920145  RH  074%=      5-min Rain = 0
KUM1 140805Z 08010KT 19/14 A3022 RMK A01 T01910144  RH  074%=      5-min Rain = 0
KUM1 140806Z 08010KT 19/15 A3022 RMK A01 T01900145  RH  075%=      5-min Rain = 0
KUM1 140807Z 08010KT 19/15 A3022 RMK A01 T01900145  RH  075%=      5-min Rain = 0
KUM1 140808Z 08012KT 19/15 A3022 RMK A01 T01900145  RH  075%=      5-min Rain = 0
KUM1 140809Z 08011KT 19/15 A3022 RMK A01 T01900145  RH  075%=      5-min Rain = 0
KUM1 140810Z 08009G15KT 19/15 A3022 RMK A01 T01900145  RH  075%=      5-min Rain = 0
KUM1 140811Z 07010KT 19/15 A3022 RMK A01 T01890145  RH  075%=      5-min Rain = 0
KUM1 140812Z 08010KT 19/15 A3022 RMK A01 T01890145  RH  075%=      5-min Rain = 0
KUM1 140813Z 08011KT 19/14 A3023 RMK A01 T01890144  RH  075%=      5-min Rain = 0
KUM1 140814Z 07012KT 19/14 A3023 RMK A01 T01890144  RH  075%=      5-min Rain = 0
KUM1 140815Z 07011KT 19/14 A3023 RMK A01 T01890143  RH  075%=      5-min Rain = 0
KUM1 140816Z 07011KT 19/14 A3023 RMK A01 T01890143  RH  075%=      5-min Rain = 0
KUM1 140817Z 07012KT 19/14 A3023 RMK A01 T01880143  RH  075%=      5-min Rain = 0
KUM1 140818Z 07010KT 19/14 A3023 RMK A01 T01880142  RH  074%=      5-min Rain = 0
KUM1 140819Z 07011KT 19/14 A3023 RMK A01 T01880141  RH  074%=      5-min Rain = 0
KUM1 140820Z 07012G17KT 19/14 A3023 RMK A01 T01880141  RH  074%=      5-min Rain = 0
KUM1 140821Z 07012KT 19/14 A3024 RMK A01 T01880139  RH  073%=      5-min Rain = 0
KUM1 140822Z 07013KT 19/14 A3024 RMK A01 T01880139  RH  073%=      5-min Rain = 0
KUM1 140823Z 07012KT 19/14 A3024 RMK A01 T01880139  RH  073%=      5-min Rain = 0
KUM1 140824Z 07010KT 19/14 A3024 RMK A01 T01880139  RH  073%=      5-min Rain = 0
KUM1 140825Z 07010KT 19/14 A3024 RMK A01 T01870139  RH  073%=      5-min Rain = 0
KUM1 140826Z 07010KT 19/14 A3024 RMK A01 T01870139  RH  073%=      5-min Rain = 0
KUM1 140827Z 07008KT 19/14 A3025 RMK A01 T01870138  RH  074%=      5-min Rain = 0
KUM1 140828Z 07006KT 19/14 A3025 RMK A01 T01860138  RH  074%=      5-min Rain = 0
KUM1 140829Z 06006KT 19/14 A3025 RMK A01 T01850138  RH  074%=      5-min Rain = 0
KUM1 140830Z 06006KT 18/14 A3025 RMK A01 T01840139  RH  075%=      5-min Rain = 0
KUM1 140831Z 06006KT 18/14 A3025 RMK A01 T01830139  RH  075%=      5-min Rain = 0
KUM1 140832Z 05007KT 18/14 A3025 RMK A01 T01820139  RH  076%=      5-min Rain = 0
KUM1 140833Z 06006KT 18/14 A3025 RMK A01 T01820139  RH  076%=      5-min Rain = 0
KUM1 140834Z 06009KT 18/14 A3025 RMK A01 T01810139  RH  076%=      5-min Rain = 0
KUM1 140835Z 07010KT 18/14 A3025 RMK A01 T01810138  RH  076%=      5-min Rain = 0
KUM1 140836Z 06012KT 18/14 A3025 RMK A01 T01810138  RH  075%=      5-min Rain = 0
KUM1 140837Z 07011KT 18/14 A3025 RMK A01 T01820137  RH  075%=      5-min Rain = 0
KUM1 140838Z 07011KT 18/14 A3025 RMK A01 T01820137  RH  075%=      5-min Rain = 0
KUM1 140839Z 07011KT 18/14 A3025 RMK A01 T01820136  RH  075%=      5-min Rain = 0
KUM1 140840Z 07010KT 18/14 A3025 RMK A01 T01820136  RH  074%=      5-min Rain = 0
KUM1 140841Z 07010KT 18/14 A3025 RMK A01 T01820136  RH  074%=      5-min Rain = 0
KUM1 140842Z 07011KT 18/14 A3025 RMK A01 T01810135  RH  074%=      5-min Rain = 0
KUM1 140843Z 07011KT 18/14 A3025 RMK A01 T01810135  RH  074%=      5-min Rain = 0
KUM1 140844Z 07010KT 18/14 A3025 RMK A01 T01810135  RH  074%=      5-min Rain = 0
KUM1 140845Z 07009KT 18/13 A3025 RMK A01 T01810134  RH  074%=      5-min Rain = 0
KUM1 140846Z 07009KT 18/13 A3025 RMK A01 T01810134  RH  074%=      5-min Rain = 0
KUM1 140847Z 06009KT 18/13 A3025 RMK A01 T01800134  RH  074%=      5-min Rain = 0
KUM1 140848Z 06009KT 18/13 A3025 RMK A01 T01800134  RH  074%=      5-min Rain = 0
KUM1 140849Z 07010KT 18/13 A3025 RMK A01 T01800134  RH  074%=      5-min Rain = 0
KUM1 140850Z 07010KT 18/13 A3025 RMK A01 T01790133  RH  074%=      5-min Rain = 0
KUM1 140851Z 07008KT 18/13 A3025 RMK A01 T01790133  RH  074%=      5-min Rain = 0
KUM1 140852Z 07008KT 18/13 A3025 RMK A01 T01780133  RH  075%=      5-min Rain = 0
KUM1 140853Z 07008KT 18/13 A3025 RMK A01 T01780133  RH  075%=      5-min Rain = 0
KUM1 140854Z 07009KT 18/13 A3025 RMK A01 T01780133  RH  075%=      5-min Rain = 0
KUM1 140855Z 07008KT 18/13 A3025 RMK A01 T01780133  RH  075%=      5-min Rain = 0
KUM1 140856Z 07008KT 18/13 A3025 RMK A01 T01770132  RH  075%=      5-min Rain = 0
KUM1 140857Z 07008KT 18/13 A3025 RMK A01 T01770132  RH  075%=      5-min Rain = 0
KUM1 140858Z 07009KT 18/13 A3025 RMK A01 T01770132  RH  075%=      5-min Rain = 0
KUM1 140859Z 06008KT 18/13 A3025 RMK A01 T01770131  RH  075%=      5-min Rain = 0
KUM1 140900Z 07008KT 18/13 A3025 RMK A01 T01770131  RH  075%=      5-min Rain = 0
KUM1 140901Z 06008KT 18/13 A3026 RMK A01 T01770131  RH  075%=      5-min Rain = 0
KUM1 140902Z 07008KT 18/13 A3026 RMK A01 T01760131  RH  075%=      5-min Rain = 0
KUM1 140903Z 07007KT 18/13 A3026 RMK A01 T01760130  RH  075%=      5-min Rain = 0
KUM1 140904Z 07008KT 18/13 A3026 RMK A01 T01750130  RH  075%=      5-min Rain = 0
KUM1 140905Z 07007KT 18/13 A3026 RMK A01 T01750130  RH  075%=      5-min Rain = 0
KUM1 140906Z 07007KT 18/13 A3026 RMK A01 T01750130  RH  075%=      5-min Rain = 0
KUM1 140907Z 06007KT 18/13 A3026 RMK A01 T01750130  RH  075%=      5-min Rain = 0
KUM1 140908Z 06008KT 18/13 A3026 RMK A01 T01750129  RH  075%=      5-min Rain = 0
KUM1 140909Z 06007KT 18/13 A3026 RMK A01 T01750129  RH  075%=      5-min Rain = 0
KUM1 140910Z 06007KT 17/13 A3026 RMK A01 T01740129  RH  075%=      5-min Rain = 0
KUM1 140911Z 06007KT 17/13 A3026 RMK A01 T01740129  RH  075%=      5-min Rain = 0
KUM1 140912Z 05007KT 17/13 A3026 RMK A01 T01740129  RH  075%=      5-min Rain = 0
KUM1 140913Z 05007KT 17/13 A3027 RMK A01 T01730128  RH  075%=      5-min Rain = 0
KUM1 140914Z 05007KT 17/13 A3027 RMK A01 T01730127  RH  074%=      5-min Rain = 0
KUM1 140915Z 05008KT 17/13 A3027 RMK A01 T01740128  RH  074%=      5-min Rain = 0
KUM1 140916Z 04008KT 17/13 A3027 RMK A01 T01740127  RH  074%=      5-min Rain = 0
KUM1 140917Z 05008KT 17/13 A3027 RMK A01 T01740128  RH  074%=      5-min Rain = 0
KUM1 140918Z 05008KT 18/13 A3027 RMK A01 T01750127  RH  074%=      5-min Rain = 0
KUM1 140919Z 05007KT 18/13 A3027 RMK A01 T01750127  RH  074%=      5-min Rain = 0
KUM1 140920Z 05007KT 18/13 A3027 RMK A01 T01760128  RH  073%=      5-min Rain = 0
KUM1 140921Z 05007KT 18/13 A3027 RMK A01 T01760128  RH  073%=      5-min Rain = 0
KUM1 140922Z 04007KT 18/13 A3027 RMK A01 T01760128  RH  073%=      5-min Rain = 0
KUM1 140923Z 04007KT 18/13 A3027 RMK A01 T01760128  RH  073%=      5-min Rain = 0
KUM1 140924Z 04007KT 18/13 A3027 RMK A01 T01760128  RH  073%=      5-min Rain = 0
KUM1 140925Z 05007KT 18/13 A3027 RMK A01 T01770128  RH  073%=      5-min Rain = 0
KUM1 140926Z 05007KT 18/13 A3027 RMK A01 T01770128  RH  073%=      5-min Rain = 0
KUM1 140927Z 05007KT 18/13 A3027 RMK A01 T01770128  RH  073%=      5-min Rain = 0
KUM1 140928Z 05007KT 18/13 A3027 RMK A01 T01770127  RH  072%=      5-min Rain = 0
KUM1 140929Z 05007KT 18/13 A3027 RMK A01 T01780128  RH  072%=      5-min Rain = 0
KUM1 140930Z 05007KT 18/13 A3027 RMK A01 T01780127  RH  072%=      5-min Rain = 0
KUM1 140931Z 05006KT 18/13 A3027 RMK A01 T01780127  RH  072%=      5-min Rain = 0
KUM1 140932Z 05008KT 18/13 A3027 RMK A01 T01780127  RH  072%=      5-min Rain = 0
KUM1 140933Z 06008KT 18/13 A3027 RMK A01 T01790127  RH  072%=      5-min Rain = 0
KUM1 140934Z 05006KT 18/13 A3027 RMK A01 T01790127  RH  071%=      5-min Rain = 0
KUM1 140935Z 05006KT 18/13 A3027 RMK A01 T01790127  RH  071%=      5-min Rain = 0
KUM1 140936Z 05007KT 18/13 A3027 RMK A01 T01790126  RH  071%=      5-min Rain = 0
KUM1 140937Z 05007KT 18/13 A3027 RMK A01 T01800126  RH  071%=      5-min Rain = 0
KUM1 140938Z 05009KT 18/13 A3027 RMK A01 T01800126  RH  071%=      5-min Rain = 0
KUM1 140939Z 06009KT 18/13 A3027 RMK A01 T01810126  RH  070%=      5-min Rain = 0
KUM1 140940Z 06008KT 18/13 A3027 RMK A01 T01820126  RH  070%=      5-min Rain = 0
KUM1 140941Z 06010KT 18/13 A3027 RMK A01 T01820126  RH  070%=      5-min Rain = 0
KUM1 140942Z 05008KT 18/13 A3027 RMK A01 T01830125  RH  069%=      5-min Rain = 0
KUM1 140943Z 06009KT 18/13 A3027 RMK A01 T01840126  RH  069%=      5-min Rain = 0
KUM1 140944Z 05008KT 18/13 A3027 RMK A01 T01840126  RH  069%=      5-min Rain = 0
KUM1 140945Z 06008KT 19/13 A3027 RMK A01 T01850125  RH  068%=      5-min Rain = 0
KUM1 140946Z 06008KT 19/13 A3027 RMK A01 T01850126  RH  068%=      5-min Rain = 0
KUM1 140947Z 06009KT 19/13 A3027 RMK A01 T01850125  RH  068%=      5-min Rain = 0
KUM1 140948Z 07008KT 19/13 A3027 RMK A01 T01860125  RH  068%=      5-min Rain = 0
KUM1 140949Z 06009KT 19/13 A3027 RMK A01 T01870126  RH  068%=      5-min Rain = 0
KUM1 140950Z 06009KT 19/13 A3027 RMK A01 T01870125  RH  067%=      5-min Rain = 0
KUM1 140951Z 06008KT 19/13 A3027 RMK A01 T01870126  RH  067%=      5-min Rain = 0
KUM1 140952Z 06008KT 19/13 A3027 RMK A01 T01870126  RH  067%=      5-min Rain = 0
KUM1 140953Z 06009KT 19/13 A3027 RMK A01 T01870126  RH  067%=      5-min Rain = 0
KUM1 140954Z 06010KT 19/13 A3027 RMK A01 T01880125  RH  067%=      5-min Rain = 0
KUM1 140955Z 05009KT 19/13 A3027 RMK A01 T01880125  RH  067%=      5-min Rain = 0
KUM1 140956Z 05009KT 19/13 A3027 RMK A01 T01890125  RH  067%=      5-min Rain = 0
KUM1 140957Z 05009KT 19/13 A3027 RMK A01 T01890125  RH  066%=      5-min Rain = 0
KUM1 140958Z 05009KT 19/13 A3027 RMK A01 T01890125  RH  066%=      5-min Rain = 0
KUM1 140959Z 04009KT 19/13 A3028 RMK A01 T01890125  RH  066%=      5-min Rain = 0
KUM1 141000Z 04010KT 19/13 A3028 RMK A01 T01900125  RH  066%=      5-min Rain = 0
KUM1 141001Z 04009KT 19/13 A3028 RMK A01 T01900125  RH  066%=      5-min Rain = 0
KUM1 141002Z 04010KT 19/13 A3028 RMK A01 T01900125  RH  066%=      5-min Rain = 0
KUM1 141003Z 04010KT 19/13 A3028 RMK A01 T01900125  RH  066%=      5-min Rain = 0
KUM1 141004Z 04010KT 19/13 A3028 RMK A01 T01910126  RH  066%=      5-min Rain = 0
KUM1 141005Z 04011KT 19/13 A3028 RMK A01 T01910125  RH  066%=      5-min Rain = 0
KUM1 141006Z 04010KT 19/13 A3028 RMK A01 T01920125  RH  065%=      5-min Rain = 0
KUM1 141007Z 04009KT 19/13 A3028 RMK A01 T01920125  RH  065%=      5-min Rain = 0
KUM1 141008Z 05010KT 19/13 A3028 RMK A01 T01920125  RH  065%=      5-min Rain = 0
KUM1 141009Z 05012KT 19/12 A3027 RMK A01 T01920124  RH  065%=      5-min Rain = 0
KUM1 141010Z 05009KT 19/12 A3027 RMK A01 T01930124  RH  064%=      5-min Rain = 0
KUM1 141011Z 05009KT 19/12 A3027 RMK A01 T01930124  RH  064%=      5-min Rain = 0
KUM1 141012Z 06009KT 19/12 A3027 RMK A01 T01930124  RH  064%=      5-min Rain = 0
KUM1 141013Z 06008KT 19/12 A3027 RMK A01 T01930124  RH  064%=      5-min Rain = 0
KUM1 141014Z 05010KT 19/12 A3027 RMK A01 T01930124  RH  064%=      5-min Rain = 0
KUM1 141015Z 05011KT 19/12 A3027 RMK A01 T01930124  RH  064%=      5-min Rain = 0
KUM1 141016Z 05010KT 19/12 A3027 RMK A01 T01930124  RH  064%=      5-min Rain = 0
KUM1 141017Z 05011KT 19/12 A3027 RMK A01 T01930123  RH  064%=      5-min Rain = 0
KUM1 141018Z 03011KT 19/12 A3027 RMK A01 T01930122  RH  063%=      5-min Rain = 0
KUM1 141019Z 04011KT 19/12 A3027 RMK A01 T01930123  RH  064%=      5-min Rain = 0
KUM1 141020Z 03010KT 19/12 A3027 RMK A01 T01930124  RH  064%=      5-min Rain = 0
KUM1 141021Z 04010KT 19/12 A3027 RMK A01 T01930124  RH  064%=      5-min Rain = 0
KUM1 141022Z 04009KT 19/12 A3027 RMK A01 T01930124  RH  064%=      5-min Rain = 0
KUM1 141023Z 04011KT 19/12 A3027 RMK A01 T01930124  RH  064%=      5-min Rain = 0
KUM1 141024Z 04012KT 19/12 A3027 RMK A01 T01920124  RH  065%=      5-min Rain = 0
KUM1 141025Z 04011KT 19/12 A3027 RMK A01 T01920124  RH  065%=      5-min Rain = 0
KUM1 141026Z 04011KT 19/13 A3027 RMK A01 T01910125  RH  065%=      5-min Rain = 0
KUM1 141027Z 04010KT 19/13 A3027 RMK A01 T01910125  RH  065%=      5-min Rain = 0
KUM1 141028Z 04010KT 19/13 A3027 RMK A01 T01910125  RH  066%=      5-min Rain = 0
KUM1 141029Z 04009KT 19/13 A3028 RMK A01 T01900125  RH  066%=      5-min Rain = 0
KUM1 141030Z 04010KT 19/13 A3028 RMK A01 T01900126  RH  066%=      5-min Rain = 0
KUM1 141031Z 03009KT 19/13 A3028 RMK A01 T01900126  RH  067%=      5-min Rain = 0
KUM1 141032Z 04009KT 19/13 A3028 RMK A01 T01890126  RH  067%=      5-min Rain = 0
KUM1 141033Z 04010KT 19/13 A3028 RMK A01 T01890126  RH  067%=      5-min Rain = 0
KUM1 141034Z 04010KT 19/13 A3028 RMK A01 T01890126  RH  067%=      5-min Rain = 0
KUM1 141035Z 03011KT 19/13 A3028 RMK A01 T01880126  RH  067%=      5-min Rain = 0
KUM1 141036Z 03010KT 19/13 A3028 RMK A01 T01890127  RH  067%=      5-min Rain = 0
KUM1 141037Z 04009KT 19/13 A3028 RMK A01 T01890127  RH  067%=      5-min Rain = 0
KUM1 141038Z 04011KT 19/13 A3028 RMK A01 T01880127  RH  067%=      5-min Rain = 0
KUM1 141039Z 03010KT 19/13 A3028 RMK A01 T01880127  RH  067%=      5-min Rain = 0
KUM1 141040Z 03009KT 19/13 A3028 RMK A01 T01880127  RH  067%=      5-min Rain = 0
KUM1 141041Z 03009KT 19/13 A3028 RMK A01 T01880127  RH  068%=      5-min Rain = 0
KUM1 141042Z 03009KT 19/13 A3028 RMK A01 T01880127  RH  068%=      5-min Rain = 0
KUM1 141043Z 02012KT 19/13 A3029 RMK A01 T01870127  RH  068%=      5-min Rain = 0
KUM1 141044Z 02012KT 19/13 A3029 RMK A01 T01870127  RH  068%=      5-min Rain = 0
KUM1 141045Z 03011KT 19/13 A3028 RMK A01 T01870128  RH  069%=      5-min Rain = 0
KUM1 141046Z 03012KT 19/13 A3028 RMK A01 T01860128  RH  069%=      5-min Rain = 0
KUM1 141047Z 02013KT 19/13 A3029 RMK A01 T01860128  RH  069%=      5-min Rain = 0
KUM1 141048Z 03011KT 19/13 A3028 RMK A01 T01850128  RH  069%=      5-min Rain = 0
KUM1 141049Z 04010KT 19/13 A3028 RMK A01 T01850128  RH  070%=      5-min Rain = 0
KUM1 141050Z 04010KT 18/13 A3027 RMK A01 T01840129  RH  070%=      5-min Rain = 0
KUM1 141051Z 04011KT 18/13 A3028 RMK A01 T01840128  RH  070%=      5-min Rain = 0
KUM1 141052Z 03013KT 18/13 A3028 RMK A01 T01830129  RH  070%=      5-min Rain = 0
KUM1 141053Z 03015KT 18/13 A3028 RMK A01 T01830129  RH  071%=      5-min Rain = 0
KUM1 141054Z 03015KT 18/13 A3028 RMK A01 T01830129  RH  071%=      5-min Rain = 0
KUM1 141055Z 02016KT 18/13 A3028 RMK A01 T01820129  RH  071%=      5-min Rain = 0
KUM1 141056Z 03014KT 18/13 A3028 RMK A01 T01810129  RH  071%=      5-min Rain = 0
KUM1 141057Z 03013KT 18/13 A3028 RMK A01 T01810129  RH  072%=      5-min Rain = 0
KUM1 141058Z 03017KT 18/13 A3028 RMK A01 T01800129  RH  072%=      5-min Rain = 0
KUM1 141059Z 03015KT 18/13 A3028 RMK A01 T01790129  RH  072%=      5-min Rain = 0
KUM1 141100Z 04014KT 18/13 A3028 RMK A01 T01780129  RH  073%=      5-min Rain = 0
KUM1 141101Z 03016KT 18/13 A3028 RMK A01 T01780128  RH  072%=      5-min Rain = 0
KUM1 141102Z 03020KT 18/13 A3029 RMK A01 T01790128  RH  072%=      5-min Rain = 0
KUM1 141103Z 02016KT 18/13 A3028 RMK A01 T01800128  RH  072%=      5-min Rain = 0
KUM1 141104Z 03014KT 18/13 A3028 RMK A01 T01800129  RH  072%=      5-min Rain = 0
KUM1 141105Z 03014KT 18/13 A3028 RMK A01 T01790129  RH  073%=      5-min Rain = 0
KUM1 141106Z 03014KT 18/13 A3028 RMK A01 T01780129  RH  073%=      5-min Rain = 0
KUM1 141107Z 03014KT 18/13 A3029 RMK A01 T01780129  RH  073%=      5-min Rain = 0
KUM1 141108Z 03015KT 18/13 A3029 RMK A01 T01780129  RH  073%=      5-min Rain = 0
KUM1 141109Z 04013KT 18/13 A3029 RMK A01 T01780130  RH  073%=      5-min Rain = 0
KUM1 141110Z 04012KT 18/13 A3028 RMK A01 T01780130  RH  073%=      5-min Rain = 0
KUM1 141111Z 04013KT 18/13 A3028 RMK A01 T01780129  RH  073%=      5-min Rain = 0
KUM1 141112Z 03014KT 18/13 A3029 RMK A01 T01780129  RH  073%=      5-min Rain = 0
KUM1 141113Z 03017KT 18/13 A3029 RMK A01 T01780129  RH  073%=      5-min Rain = 0
KUM1 141114Z 04016KT 18/13 A3029 RMK A01 T01780129  RH  073%=      5-min Rain = 0
KUM1 141115Z 04016KT 18/13 A3028 RMK A01 T01790129  RH  073%=      5-min Rain = 0
KUM1 141116Z 04013KT 18/13 A3028 RMK A01 T01780128  RH  073%=      5-min Rain = 0
KUM1 141117Z 04014KT 18/13 A3028 RMK A01 T01780129  RH  073%=      5-min Rain = 0
KUM1 141118Z 04013KT 18/13 A3028 RMK A01 T01780129  RH  073%=      5-min Rain = 0
KUM1 141119Z 05011KT 18/13 A3028 RMK A01 T01780129  RH  073%=      5-min Rain = 0
KUM1 141120Z 04012KT 18/13 A3028 RMK A01 T01770129  RH  073%=      5-min Rain = 0
KUM1 141121Z 04013KT 18/13 A3028 RMK A01 T01770129  RH  073%=      5-min Rain = 0
KUM1 141122Z 04013KT 18/13 A3028 RMK A01 T01770129  RH  073%=      5-min Rain = 0
KUM1 141123Z 04012KT 18/13 A3028 RMK A01 T01770129  RH  073%=      5-min Rain = 0
KUM1 141124Z 04011KT 18/13 A3027 RMK A01 T01770129  RH  074%=      5-min Rain = 0
KUM1 141125Z 05011KT 18/13 A3027 RMK A01 T01760129  RH  074%=      5-min Rain = 0
KUM1 141126Z 05010KT 18/13 A3027 RMK A01 T01760129  RH  074%=      5-min Rain = 0
KUM1 141127Z 05011KT 18/13 A3028 RMK A01 T01760129  RH  074%=      5-min Rain = 0
KUM1 141128Z 05012KT 18/13 A3027 RMK A01 T01750130  RH  075%=      5-min Rain = 0
KUM1 141129Z 05011KT 18/13 A3027 RMK A01 T01750130  RH  075%=      5-min Rain = 0
KUM1 141130Z 05010KT 18/13 A3027 RMK A01 T01750130  RH  075%=      5-min Rain = 0
KUM1 141131Z 06010KT 17/13 A3027 RMK A01 T01740130  RH  075%=      5-min Rain = 0
KUM1 141132Z 05011KT 17/13 A3027 RMK A01 T01740130  RH  076%=      5-min Rain = 0
KUM1 141133Z 05011KT 17/13 A3027 RMK A01 T01740131  RH  076%=      5-min Rain = 0
KUM1 141134Z 06010KT 17/13 A3027 RMK A01 T01740131  RH  076%=      5-min Rain = 0
KUM1 141135Z 05009KT 17/13 A3027 RMK A01 T01740131  RH  076%=      5-min Rain = 0
KUM1 141136Z 06009KT 17/13 A3027 RMK A01 T01730131  RH  076%=      5-min Rain = 0
KUM1 141137Z 06009KT 17/13 A3027 RMK A01 T01730131  RH  076%=      5-min Rain = 0
KUM1 141138Z 06009KT 17/13 A3027 RMK A01 T01730131  RH  076%=      5-min Rain = 0
KUM1 141139Z 06009KT 17/13 A3027 RMK A01 T01730131  RH  076%=      5-min Rain = 0
KUM1 141140Z 06008KT 17/13 A3027 RMK A01 T01730132  RH  076%=      5-min Rain = 0
KUM1 141141Z 06008KT 17/13 A3027 RMK A01 T01730131  RH  076%=      5-min Rain = 0
KUM1 141142Z 06007KT 17/13 A3027 RMK A01 T01730132  RH  076%=      5-min Rain = 0
KUM1 141143Z 07008KT 17/13 A3027 RMK A01 T01730132  RH  076%=      5-min Rain = 0
KUM1 141144Z 06008KT 17/13 A3027 RMK A01 T01740132  RH  076%=      5-min Rain = 0
KUM1 141145Z 06009KT 17/13 A3027 RMK A01 T01730131  RH  076%=      5-min Rain = 0
KUM1 141146Z 06008KT 17/13 A3027 RMK A01 T01740131  RH  076%=      5-min Rain = 0
KUM1 141147Z 06008KT 17/13 A3027 RMK A01 T01740131  RH  076%=      5-min Rain = 0
KUM1 141148Z 06008KT 17/13 A3027 RMK A01 T01740131  RH  076%=      5-min Rain = 0
KUM1 141149Z 07007KT 18/13 A3027 RMK A01 T01750131  RH  075%=      5-min Rain = 0
KUM1 141150Z 07008KT 18/13 A3027 RMK A01 T01750131  RH  075%=      5-min Rain = 0
KUM1 141151Z 07007KT 18/13 A3027 RMK A01 T01750132  RH  076%=      5-min Rain = 0
KUM1 141152Z 06007KT 18/13 A3027 RMK A01 T01750132  RH  076%=      5-min Rain = 0
KUM1 141153Z 06008KT 18/13 A3027 RMK A01 T01750132  RH  076%=      5-min Rain = 0
KUM1 141154Z 06008KT 17/13 A3028 RMK A01 T01740131  RH  076%=      5-min Rain = 0
KUM1 141155Z 06007KT 18/13 A3028 RMK A01 T01750132  RH  076%=      5-min Rain = 0
KUM1 141156Z 05007KT 18/13 A3028 RMK A01 T01750131  RH  075%=      5-min Rain = 0
KUM1 141157Z 05006KT 18/13 A3028 RMK A01 T01760132  RH  075%=      5-min Rain = 0
KUM1 141158Z 05006KT 18/13 A3029 RMK A01 T01760131  RH  075%=      5-min Rain = 0
KUM1 141159Z 04005KT 18/13 A3029 RMK A01 T01760131  RH  075%=      5-min Rain = 0
KUM1 141200Z 04005KT 18/13 A3029 RMK A01 T01770131  RH  074%=      5-min Rain = 0
KUM1 141201Z 02005KT 18/13 A303 RMK A01 T01770131  RH  074%=      5-min Rain = 0
KUM1 141202Z 01006KT 18/13 A303 RMK A01 T01780131  RH  074%=      5-min Rain = 0
KUM1 141203Z 01006KT 18/13 A303 RMK A01 T01780130  RH  074%=      5-min Rain = 0
KUM1 141204Z 00006KT 18/13 A3031 RMK A01 T01790131  RH  073%=      5-min Rain = 0
KUM1 141205Z 36005KT 18/13 A3031 RMK A01 T01790131  RH  073%=      5-min Rain = 0
KUM1 141206Z 34007KT 18/13 A3031 RMK A01 T01790131  RH  073%=      5-min Rain = 0
KUM1 141207Z 34007KT 18/13 A3031 RMK A01 T01790132  RH  073%=      5-min Rain = 0
KUM1 141208Z 35007KT 18/13 A3031 RMK A01 T01800131  RH  073%=      5-min Rain = 0
KUM1 141209Z 00007KT 18/13 A3031 RMK A01 T01800132  RH  073%=      5-min Rain = 0
KUM1 141210Z 35006KT 18/13 A3031 RMK A01 T01800132  RH  073%=      5-min Rain = 0
KUM1 141211Z 34006KT 18/13 A3031 RMK A01 T01800132  RH  073%=      5-min Rain = 0
KUM1 141212Z 34005KT 18/13 A3031 RMK A01 T01800132  RH  074%=      5-min Rain = 0
KUM1 141213Z 34005KT 18/13 A3031 RMK A01 T01800132  RH  074%=      5-min Rain = 0
KUM1 141214Z 33005KT 18/13 A3031 RMK A01 T01800132  RH  074%=      5-min Rain = 0
KUM1 141215Z 35005KT 18/13 A303 RMK A01 T01790132  RH  074%=      5-min Rain = 0
KUM1 141216Z 34004KT 18/13 A303 RMK A01 T01790132  RH  074%=      5-min Rain = 0
KUM1 141217Z 33004KT 18/13 A303 RMK A01 T01790132  RH  074%=      5-min Rain = 0
KUM1 141218Z 34004KT 18/13 A303 RMK A01 T01790132  RH  074%=      5-min Rain = 0
KUM1 141219Z 34004KT 18/13 A303 RMK A01 T01780132  RH  074%=      5-min Rain = 0
KUM1 141220Z 34004KT 18/13 A303 RMK A01 T01790132  RH  074%=      5-min Rain = 0
KUM1 141221Z 34004KT 18/13 A303 RMK A01 T01780132  RH  074%=      5-min Rain = 0
KUM1 141222Z 34004KT 18/13 A303 RMK A01 T01780132  RH  074%=      5-min Rain = 0
KUM1 141223Z 33004KT 18/13 A303 RMK A01 T01780132  RH  074%=      5-min Rain = 0
KUM1 141224Z 32004KT 18/13 A303 RMK A01 T01780132  RH  074%=      5-min Rain = 0
KUM1 141225Z 33005KT 18/13 A303 RMK A01 T01780132  RH  074%=      5-min Rain = 0
KUM1 141226Z 32005KT 18/13 A303 RMK A01 T01780132  RH  074%=      5-min Rain = 0
KUM1 141227Z 32005KT 18/13 A303 RMK A01 T01780132  RH  074%=      5-min Rain = 0
KUM1 141228Z 32005KT 18/13 A303 RMK A01 T01780132  RH  074%=      5-min Rain = 0
KUM1 141229Z 33005KT 18/13 A303 RMK A01 T01780132  RH  074%=      5-min Rain = 0
KUM1 141230Z 33005KT 18/13 A303 RMK A01 T01780132  RH  074%=      5-min Rain = 0
KUM1 141231Z 33005KT 18/13 A303 RMK A01 T01770131  RH  074%=      5-min Rain = 0
KUM1 141232Z 33005KT 18/13 A303 RMK A01 T01780132  RH  074%=      5-min Rain = 0
KUM1 141233Z 33005KT 18/13 A303 RMK A01 T01780132  RH  074%=      5-min Rain = 0
KUM1 141234Z 34005KT 18/13 A303 RMK A01 T01780132  RH  074%=      5-min Rain = 0
KUM1 141235Z 33005KT 18/13 A303 RMK A01 T01770132  RH  074%=      5-min Rain = 0
KUM1 141236Z 33005KT 18/13 A303 RMK A01 T01770132  RH  074%=      5-min Rain = 0
KUM1 141237Z 35005KT 18/13 A303 RMK A01 T01770132  RH  075%=      5-min Rain = 0
KUM1 141238Z 34005KT 18/13 A303 RMK A01 T01770132  RH  075%=      5-min Rain = 0
KUM1 141239Z 00005KT 18/13 A303 RMK A01 T01770132  RH  075%=      5-min Rain = 0
KUM1 141240Z 34005KT 18/13 A303 RMK A01 T01770133  RH  075%=      5-min Rain = 0
KUM1 141241Z 35004KT 18/13 A303 RMK A01 T01770133  RH  076%=      5-min Rain = 0
KUM1 141242Z 01004KT 18/13 A303 RMK A01 T01770134  RH  076%=      5-min Rain = 0
KUM1 141243Z 00007KT 18/13 A303 RMK A01 T01770131  RH  075%=      5-min Rain = 0
KUM1 141244Z 00006KT 18/13 A303 RMK A01 T01790131  RH  074%=      5-min Rain = 0
KUM1 141245Z 00010KT 18/13 A303 RMK A01 T01800131  RH  073%=      5-min Rain = 0
KUM1 141246Z 35010KT 18/13 A303 RMK A01 T01810130  RH  072%=      5-min Rain = 0
KUM1 141247Z 35009KT 18/13 A303 RMK A01 T01830129  RH  070%=      5-min Rain = 0
KUM1 141248Z 00010KT 19/13 A303 RMK A01 T01850128  RH  069%=      5-min Rain = 0
KUM1 141249Z 00007KT 19/13 A303 RMK A01 T01870129  RH  069%=      5-min Rain = 0
KUM1 141250Z 00006KT 19/13 A303 RMK A01 T01870129  RH  069%=      5-min Rain = 0
KUM1 141251Z 35006KT 19/13 A303 RMK A01 T01880130  RH  069%=      5-min Rain = 0
KUM1 141252Z 34006KT 19/13 A303 RMK A01 T01870131  RH  070%=      5-min Rain = 0
KUM1 141253Z 34008KT 19/13 A303 RMK A01 T01860132  RH  071%=      5-min Rain = 0
KUM1 141254Z 32006KT 19/13 A303 RMK A01 T01860133  RH  071%=      5-min Rain = 0
KUM1 141255Z 32006KT 18/13 A303 RMK A01 T01840134  RH  072%=      5-min Rain = 0
KUM1 141256Z 30004KT 18/13 A303 RMK A01 T01830134  RH  073%=      5-min Rain = 0
KUM1 141257Z 31005KT 18/14 A303 RMK A01 T01820135  RH  074%=      5-min Rain = 0
KUM1 141258Z 31005KT 18/14 A303 RMK A01 T01810135  RH  075%=      5-min Rain = 0
KUM1 141259Z 31003KT 18/13 A303 RMK A01 T01800134  RH  074%=      5-min Rain = 0
KUM1 141300Z 32004KT 18/13 A303 RMK A01 T01800133  RH  074%=      5-min Rain = 0
KUM1 141301Z 28004KT 18/14 A3029 RMK A01 T01800135  RH  075%=      5-min Rain = 0
KUM1 141302Z 31004KT 18/13 A303 RMK A01 T01800134  RH  074%=      5-min Rain = 0
KUM1 141303Z 30003KT 18/14 A3029 RMK A01 T01800135  RH  075%=      5-min Rain = 0
KUM1 141304Z 31005KT 18/14 A303 RMK A01 T01790135  RH  075%=      5-min Rain = 0
KUM1 141305Z 30005KT 18/14 A303 RMK A01 T01790135  RH  075%=      5-min Rain = 0
KUM1 141306Z 31005KT 18/14 A303 RMK A01 T01790137  RH  077%=      5-min Rain = 0
KUM1 141307Z 30006KT 18/14 A303 RMK A01 T01780138  RH  077%=      5-min Rain = 0
KUM1 141308Z 31007KT 18/14 A303 RMK A01 T01770138  RH  078%=      5-min Rain = 0
KUM1 141309Z 32006KT 18/14 A303 RMK A01 T01770139  RH  078%=      5-min Rain = 0
KUM1 141310Z 32006KT 18/14 A303 RMK A01 T01770141  RH  079%=      5-min Rain = 0
KUM1 141311Z 31005KT 18/14 A303 RMK A01 T01770141  RH  079%=      5-min Rain = 0
KUM1 141312Z 32006KT 18/14 A3029 RMK A01 T01760142  RH  080%=      5-min Rain = 0
KUM1 141313Z 31006KT 18/14 A303 RMK A01 T01760140  RH  080%=      5-min Rain = 0
KUM1 141314Z 30005KT 18/14 A3029 RMK A01 T01760142  RH  080%=      5-min Rain = 0
KUM1 141315Z 30005KT 18/14 A3029 RMK A01 T01760142  RH  080%=      5-min Rain = 0
KUM1 141316Z 32003KT 18/14 A3029 RMK A01 T01760142  RH  081%=      5-min Rain = 0
KUM1 141317Z 29003KT 18/14 A3029 RMK A01 T01760144  RH  081%=      5-min Rain = 0
KUM1 141318Z 30004KT 18/14 A3029 RMK A01 T01760144  RH  082%=      5-min Rain = 0
KUM1 141319Z 28004KT 18/14 A3029 RMK A01 T01750143  RH  081%=      5-min Rain = 0
KUM1 141320Z 27004KT 18/14 A3029 RMK A01 T01760143  RH  081%=      5-min Rain = 0
KUM1 141321Z 26005KT 18/14 A3029 RMK A01 T01760144  RH  082%=      5-min Rain = 0
KUM1 141322Z 24005KT 18/14 A3029 RMK A01 T01750144  RH  082%=      5-min Rain = 0
KUM1 141323Z 23005KT 18/14 A3029 RMK A01 T01760142  RH  081%=      5-min Rain = 0
KUM1 141324Z 24005KT 18/14 A3029 RMK A01 T01760143  RH  081%=      5-min Rain = 0
KUM1 141325Z 23007KT 18/14 A3029 RMK A01 T01760143  RH  081%=      5-min Rain = 0
KUM1 141326Z 23006KT 18/14 A3028 RMK A01 T01760143  RH  081%=      5-min Rain = 0
KUM1 141327Z 23007KT 18/14 A3028 RMK A01 T01760143  RH  081%=      5-min Rain = 0
KUM1 141328Z 23006KT 18/14 A3028 RMK A01 T01760143  RH  081%=      5-min Rain = 0
KUM1 141329Z 23005KT 18/14 A3028 RMK A01 T01760142  RH  081%=      5-min Rain = 0
KUM1 141330Z 22004KT 18/14 A3028 RMK A01 T01760142  RH  080%=      5-min Rain = 0
KUM1 141331Z 25004KT 18/14 A3028 RMK A01 T01770142  RH  080%=      5-min Rain = 0
KUM1 141332Z 24005KT 18/14 A3028 RMK A01 T01780138  RH  077%=      5-min Rain = 0
KUM1 141333Z 24004KT 18/14 A3028 RMK A01 T01810139  RH  076%=      5-min Rain = 0
KUM1 141334Z 24005KT 18/14 A3028 RMK A01 T01820138  RH  075%=      5-min Rain = 0
KUM1 141335Z 24005KT 18/14 A3028 RMK A01 T01840136  RH  073%=      5-min Rain = 0
KUM1 141336Z 25003KT 19/13 A3028 RMK A01 T01870133  RH  071%=      5-min Rain = 0
KUM1 141337Z 31006KT 19/13 A3028 RMK A01 T01900130  RH  068%=      5-min Rain = 0
KUM1 141338Z 30003KT 19/13 A3028 RMK A01 T01930131  RH  067%=      5-min Rain = 0
KUM1 141339Z 32003KT 19/13 A3028 RMK A01 T01940131  RH  067%=      5-min Rain = 0
KUM1 141340Z 33002KT 20/12 A3028 RMK A01 T01960124  RH  063%=      5-min Rain = 0
KUM1 141341Z 31004KT 20/12 A3028 RMK A01 T01990121  RH  061%=      5-min Rain = 0
KUM1 141342Z 30005KT 20/13 A3028 RMK A01 T02020126  RH  062%=      5-min Rain = 0
KUM1 141343Z 28009G15KT 20/13 A3029 RMK A01 T02030129  RH  062%=      5-min Rain = 0
KUM1 141344Z 26015KT 20/13 A3029 RMK A01 T02030132  RH  064%=      5-min Rain = 0
KUM1 141345Z 27015KT 20/13 A303 RMK A01 T02000133  RH  065%=      5-min Rain = 0
KUM1 141346Z 27014KT 20/13 A3031 RMK A01 T01970133  RH  067%=      5-min Rain = 0
KUM1 141347Z 27016KT 20/13 A3031 RMK A01 T01950134  RH  068%=      5-min Rain = 0
KUM1 141348Z 28016KT 19/14 A3031 RMK A01 T01930135  RH  069%=      5-min Rain = 0
KUM1 141349Z 27012KT 19/13 A3031 RMK A01 T01910134  RH  070%=      5-min Rain = 0
KUM1 141350Z 27011KT 19/14 A3031 RMK A01 T01910135  RH  070%=      5-min Rain = 0
KUM1 141351Z 27011KT 19/14 A3031 RMK A01 T01910136  RH  070%=      5-min Rain = 0
KUM1 141352Z 26011KT 19/14 A3031 RMK A01 T01910136  RH  070%=      5-min Rain = 0
KUM1 141353Z 25015KT 19/14 A303 RMK A01 T01910135  RH  070%=      5-min Rain = 0
KUM1 141354Z 25014KT 19/14 A303 RMK A01 T01900136  RH  071%=      5-min Rain = 0
KUM1 141355Z 25012KT 19/14 A303 RMK A01 T01890137  RH  072%=      5-min Rain = 0
KUM1 141356Z 26011KT 19/14 A303 RMK A01 T01880140  RH  074%=      5-min Rain = 0
KUM1 141357Z 26011KT 19/14 A303 RMK A01 T01860142  RH  075%=      5-min Rain = 0
KUM1 141358Z 25010KT 18/14 A303 RMK A01 T01840141  RH  076%=      5-min Rain = 0
KUM1 141359Z 25008KT 18/14 A3029 RMK A01 T01840139  RH  075%=      5-min Rain = 0
KUM1 141400Z 25007KT 18/14 A3029 RMK A01 T01840139  RH  075%=      5-min Rain = 0
KUM1 141401Z 26008KT 18/14 A3029 RMK A01 T01840143  RH  077%=      5-min Rain = 0
KUM1 141402Z 26007KT 18/14 A3029 RMK A01 T01840143  RH  077%=      5-min Rain = 0
KUM1 141403Z 25006KT 18/14 A3029 RMK A01 T01840141  RH  076%=      5-min Rain = 0
KUM1 141404Z 25006KT 18/14 A3029 RMK A01 T01840141  RH  076%=      5-min Rain = 0
KUM1 141405Z 25006KT 19/14 A3028 RMK A01 T01850144  RH  077%=      5-min Rain = 0
KUM1 141406Z 24005KT 18/14 A3028 RMK A01 T01840144  RH  077%=      5-min Rain = 0
KUM1 141407Z 21003KT 19/14 A3027 RMK A01 T01850144  RH  077%=      5-min Rain = 0
KUM1 141408Z 21002KT 19/15 A3027 RMK A01 T01850145  RH  078%=      5-min Rain = 0
KUM1 141409Z 19001KT 19/14 A3027 RMK A01 T01850140  RH  075%=      5-min Rain = 0
KUM1 141410Z 17001KT 19/14 A3027 RMK A01 T01860136  RH  073%=      5-min Rain = 0
KUM1 141411Z 18002KT 19/14 A3026 RMK A01 T01860140  RH  074%=      5-min Rain = 0
KUM1 141412Z 20003KT 19/15 A3026 RMK A01 T01870146  RH  077%=      5-min Rain = 0
KUM1 141413Z 22004KT 19/15 A3026 RMK A01 T01870147  RH  077%=      5-min Rain = 0
KUM1 141414Z 24005KT 19/15 A3026 RMK A01 T01880147  RH  077%=      5-min Rain = 0
KUM1 141415Z 24006KT 19/15 A3026 RMK A01 T01890148  RH  077%=      5-min Rain = 0
KUM1 141416Z 23006KT 19/14 A3026 RMK A01 T01900144  RH  075%=      5-min Rain = 0
KUM1 141417Z 21005KT 19/14 A3025 RMK A01 T01910144  RH  074%=      5-min Rain = 0
KUM1 141418Z 18005KT 19/15 A3025 RMK A01 T01920145  RH  075%=      5-min Rain = 0
KUM1 141419Z 16005KT 19/15 A3024 RMK A01 T01920148  RH  076%=      5-min Rain = 0
KUM1 141420Z 14006KT 19/15 A3024 RMK A01 T01920148  RH  075%=      5-min Rain = 0
KUM1 141421Z 13007KT 19/15 A3024 RMK A01 T01930145  RH  074%=      5-min Rain = 0
KUM1 141422Z 13007KT 20/14 A3024 RMK A01 T01950142  RH  072%=      5-min Rain = 0
KUM1 141423Z 12007KT 20/14 A3024 RMK A01 T01960142  RH  071%=      5-min Rain = 0
KUM1 141424Z 12007KT 20/14 A3023 RMK A01 T01970136  RH  068%=      5-min Rain = 0
KUM1 141425Z 12007KT 20/14 A3023 RMK A01 T01990137  RH  067%=      5-min Rain = 0
KUM1 141426Z 11006KT 20/14 A3023 RMK A01 T02010135  RH  066%=      5-min Rain = 0
KUM1 141427Z 11006KT 20/14 A3023 RMK A01 T02030136  RH  065%=      5-min Rain = 0
KUM1 141428Z 10006KT 21/13 A3023 RMK A01 T02060131  RH  062%=      5-min Rain = 0
KUM1 141429Z 09006KT 21/14 A3023 RMK A01 T02080136  RH  064%=      5-min Rain = 0
KUM1 141430Z 09006KT 21/14 A3023 RMK A01 T02090140  RH  064%=      5-min Rain = 0
KUM1 141431Z 09005KT 21/14 A3023 RMK A01 T02100138  RH  063%=      5-min Rain = 0
KUM1 141432Z 08003KT 21/14 A3023 RMK A01 T02110136  RH  062%=      5-min Rain = 0
KUM1 141433Z 07003KT 21/14 A3023 RMK A01 T02120140  RH  063%=      5-min Rain = 0
KUM1 141434Z 08003KT 21/14 A3023 RMK A01 T02130141  RH  063%=      5-min Rain = 0
KUM1 141435Z 08003KT 21/14 A3024 RMK A01 T02140142  RH  063%=      5-min Rain = 0
KUM1 141436Z 07001KT 22/14 A3024 RMK A01 T02160143  RH  063%=      5-min Rain = 0
KUM1 141437Z 07001KT 22/15 A3024 RMK A01 T02160145  RH  064%=      5-min Rain = 0
KUM1 141438Z 07001KT 22/15 A3024 RMK A01 T02170145  RH  063%=      5-min Rain = 0
KUM1 141439Z 07000KT 22/15 A3024 RMK A01 T02180146  RH  064%=      5-min Rain = 0
KUM1 141440Z 33001KT 22/15 A3025 RMK A01 T02180147  RH  064%=      5-min Rain = 0
KUM1 141441Z 31003KT 22/16 A3025 RMK A01 T02190155  RH  067%=      5-min Rain = 0
KUM1 141442Z 29002KT 22/16 A3025 RMK A01 T02190157  RH  068%=      5-min Rain = 0
KUM1 141443Z 25003KT 22/16 A3026 RMK A01 T02190157  RH  068%=      5-min Rain = 0
KUM1 141444Z 23004KT 22/16 A3026 RMK A01 T02180155  RH  067%=      5-min Rain = 0
KUM1 141445Z 20003KT 22/15 A3026 RMK A01 T02190147  RH  063%=      5-min Rain = 0
KUM1 141446Z 22005KT 22/14 A3026 RMK A01 T02200142  RH  061%=      5-min Rain = 0
KUM1 141447Z 23007KT 22/14 A3026 RMK A01 T02210139  RH  060%=      5-min Rain = 0
KUM1 141448Z 23005KT 22/14 A3026 RMK A01 T02210137  RH  059%=      5-min Rain = 0
KUM1 141449Z 23005KT 22/14 A3026 RMK A01 T02190136  RH  059%=      5-min Rain = 0
KUM1 141450Z 24003KT 22/13 A3026 RMK A01 T02180134  RH  059%=      5-min Rain = 0
KUM1 141451Z 26002KT 22/14 A3027 RMK A01 T02180138  RH  060%=      5-min Rain = 0
KUM1 141452Z 26001KT 22/14 A3027 RMK A01 T02180142  RH  062%=      5-min Rain = 0
KUM1 141453Z 24001KT 22/14 A3027 RMK A01 T02180141  RH  061%=      5-min Rain = 0
KUM1 141454Z 22003KT 22/14 A3026 RMK A01 T02180141  RH  061%=      5-min Rain = 0
KUM1 141455Z 21005KT 22/14 A3026 RMK A01 T02180141  RH  061%=      5-min Rain = 0
KUM1 141456Z 21005KT 22/14 A3026 RMK A01 T02170143  RH  063%=      5-min Rain = 0
KUM1 141457Z 22006KT 22/14 A3026 RMK A01 T02160144  RH  064%=      5-min Rain = 0
KUM1 141458Z 23006KT 21/14 A3026 RMK A01 T02140143  RH  064%=      5-min Rain = 0
KUM1 141459Z 24005KT 21/14 A3026 RMK A01 T02130141  RH  063%=      5-min Rain = 0
KUM1 141500Z 26005KT 21/14 A3026 RMK A01 T02120142  RH  064%=      5-min Rain = 0
KUM1 141501Z 27005KT 21/14 A3026 RMK A01 T02110140  RH  064%=      5-min Rain = 0
KUM1 141502Z 28004KT 21/14 A3026 RMK A01 T02110138  RH  063%=      5-min Rain = 0
KUM1 141503Z 30002KT 21/14 A3026 RMK A01 T02110135  RH  062%=      5-min Rain = 0
KUM1 141504Z 32001KT 21/14 A3026 RMK A01 T02100136  RH  062%=      5-min Rain = 0
KUM1 141505Z 34001KT 21/14 A3026 RMK A01 T02110136  RH  062%=      5-min Rain = 0
KUM1 141506Z 34002KT 21/14 A3026 RMK A01 T02120137  RH  062%=      5-min Rain = 0
KUM1 141507Z 31002KT 21/14 A3026 RMK A01 T02130141  RH  063%=      5-min Rain = 0
KUM1 141508Z 27002KT 22/14 A3026 RMK A01 T02150141  RH  063%=      5-min Rain = 0
KUM1 141509Z 26004KT 22/14 A3026 RMK A01 T02160140  RH  062%=      5-min Rain = 0
KUM1 141510Z 26007KT 22/14 A3026 RMK A01 T02170142  RH  062%=      5-min Rain = 0
KUM1 141511Z 26008KT 22/14 A3026 RMK A01 T02180140  RH  061%=      5-min Rain = 0
KUM1 141512Z 27007KT 22/14 A3026 RMK A01 T02190137  RH  060%=      5-min Rain = 0
KUM1 141513Z 28007KT 22/14 A3027 RMK A01 T02190138  RH  060%=      5-min Rain = 0
KUM1 141514Z 29006KT 22/14 A3027 RMK A01 T02200136  RH  059%=      5-min Rain = 0
KUM1 141515Z 31004KT 22/14 A3027 RMK A01 T02220136  RH  058%=      5-min Rain = 0
KUM1 141516Z 32004KT 22/13 A3026 RMK A01 T02240134  RH  057%=      5-min Rain = 0
KUM1 141517Z 33003KT 23/13 A3026 RMK A01 T02250133  RH  056%=      5-min Rain = 0
KUM1 141518Z 33003KT 23/13 A3026 RMK A01 T02260132  RH  055%=      5-min Rain = 0
KUM1 141519Z 31002KT 23/13 A3026 RMK A01 T02270132  RH  055%=      5-min Rain = 0
KUM1 141520Z 27002KT 23/13 A3027 RMK A01 T02280133  RH  055%=      5-min Rain = 0
KUM1 141521Z 24005KT 23/13 A3027 RMK A01 T02300134  RH  055%=      5-min Rain = 0
KUM1 141522Z 22007KT 23/14 A3027 RMK A01 T02320139  RH  056%=      5-min Rain = 0
KUM1 141523Z 23008KT 23/15 A3027 RMK A01 T02320150  RH  060%=      5-min Rain = 0
KUM1 141524Z 24010KT 23/14 A3027 RMK A01 T02300143  RH  058%=      5-min Rain = 0
KUM1 141525Z 23008KT 23/14 A3028 RMK A01 T02270137  RH  057%=      5-min Rain = 0
KUM1 141526Z 23007KT 23/14 A3028 RMK A01 T02260137  RH  057%=      5-min Rain = 0
KUM1 141527Z 22008KT 23/14 A3028 RMK A01 T02260140  RH  058%=      5-min Rain = 0
KUM1 141528Z 22007KT 23/14 A3028 RMK A01 T02280142  RH  058%=      5-min Rain = 0
KUM1 141529Z 21010KT 23/14 A3028 RMK A01 T02300139  RH  056%=      5-min Rain = 0
KUM1 141530Z 22010KT 23/14 A3028 RMK A01 T02300136  RH  055%=      5-min Rain = 0
KUM1 141531Z 22009KT 23/14 A3028 RMK A01 T02310135  RH  055%=      5-min Rain = 0
KUM1 141532Z 23009KT 23/14 A3028 RMK A01 T02320138  RH  056%=      5-min Rain = 0
KUM1 141533Z 23007KT 24/14 A3028 RMK A01 T02350138  RH  055%=      5-min Rain = 0
KUM1 141534Z 24007KT 24/14 A3028 RMK A01 T02370138  RH  054%=      5-min Rain = 0
KUM1 141535Z 24007KT 24/14 A3028 RMK A01 T02380137  RH  053%=      5-min Rain = 0
KUM1 141536Z 23007KT 24/14 A3028 RMK A01 T02400139  RH  053%=      5-min Rain = 0
KUM1 141537Z 23008KT 24/14 A3028 RMK A01 T02430144  RH  054%=      5-min Rain = 0
KUM1 141538Z 24008KT 25/14 A3028 RMK A01 T02450140  RH  052%=      5-min Rain = 0
KUM1 141539Z 24009KT 24/14 A3028 RMK A01 T02430137  RH  052%=      5-min Rain = 0
KUM1 141540Z 24008KT 24/14 A3029 RMK A01 T02400135  RH  052%=      5-min Rain = 0
KUM1 141541Z 24008KT 24/14 A3029 RMK A01 T02390135  RH  052%=      5-min Rain = 0
KUM1 141542Z 23006KT 24/13 A3029 RMK A01 T02390133  RH  052%=      5-min Rain = 0
KUM1 141543Z 23006KT 24/13 A3029 RMK A01 T02390133  RH  052%=      5-min Rain = 0
KUM1 141544Z 24006KT 24/13 A3029 RMK A01 T02390134  RH  052%=      5-min Rain = 0
KUM1 141545Z 22006KT 24/14 A3029 RMK A01 T02410136  RH  052%=      5-min Rain = 0
KUM1 141546Z 22006KT 25/14 A3029 RMK A01 T02470136  RH  050%=      5-min Rain = 0
KUM1 141547Z 22006KT 25/13 A3029 RMK A01 T02540134  RH  047%=      5-min Rain = 0
KUM1 141548Z 22006KT 26/13 A3029 RMK A01 T02580128  RH  045%=      5-min Rain = 0
KUM1 141549Z 23005KT 26/13 A3029 RMK A01 T02580131  RH  045%=      5-min Rain = 0
KUM1 141550Z 26007KT 26/14 A3029 RMK A01 T02580135  RH  047%=      5-min Rain = 0
KUM1 141551Z 27006KT 26/14 A3029 RMK A01 T02570136  RH  047%=      5-min Rain = 0
KUM1 141552Z 24006KT 26/14 A3029 RMK A01 T02570135  RH  047%=      5-min Rain = 0
KUM1 141553Z 22004KT 26/13 A303 RMK A01 T02570133  RH  046%=      5-min Rain = 0
KUM1 141554Z 23003KT 26/13 A303 RMK A01 T02560134  RH  047%=      5-min Rain = 0
KUM1 141555Z 24004KT 25/13 A303 RMK A01 T02540134  RH  047%=      5-min Rain = 0
KUM1 141556Z 24003KT 25/13 A303 RMK A01 T02540133  RH  047%=      5-min Rain = 0
KUM1 141557Z 26003KT 25/13 A303 RMK A01 T02530133  RH  047%=      5-min Rain = 0
KUM1 141558Z 32003KT 26/14 A303 RMK A01 T02550135  RH  047%=      5-min Rain = 0
KUM1 141559Z 35001KT 26/13 A303 RMK A01 T02580133  RH  046%=      5-min Rain = 0
KUM1 141600Z 33000KT 26/13 A303 RMK A01 T02580134  RH  046%=      5-min Rain = 0
KUM1 141601Z 04003KT 26/13 A303 RMK A01 T02580134  RH  046%=      5-min Rain = 0
KUM1 141602Z 36002KT 26/13 A303 RMK A01 T02590134  RH  046%=      5-min Rain = 0
KUM1 141603Z 01004KT 26/14 A303 RMK A01 T02590136  RH  047%=      5-min Rain = 0
KUM1 141604Z 01008KT 27/13 A3031 RMK A01 T02650134  RH  044%=      5-min Rain = 0
KUM1 141605Z 01008KT 27/13 A3031 RMK A01 T02680132  RH  043%=      5-min Rain = 0
KUM1 141606Z 03008KT 27/14 A303 RMK A01 T02680135  RH  044%=      5-min Rain = 0
KUM1 141607Z 01007KT 27/14 A303 RMK A01 T02690137  RH  044%=      5-min Rain = 0
KUM1 141608Z 01011KT 27/14 A3031 RMK A01 T02710139  RH  044%=      5-min Rain = 0
KUM1 141609Z 01012KT 27/14 A3031 RMK A01 T02690139  RH  045%=      5-min Rain = 0
KUM1 141610Z 03014G20KT 27/14 A3031 RMK A01 T02700139  RH  045%=      5-min Rain = 0
KUM1 141611Z 02016G21KT 27/14 A3031 RMK A01 T02700144  RH  046%=      5-min Rain = 0
KUM1 141612Z 04014KT 27/14 A3031 RMK A01 T02650142  RH  047%=      5-min Rain = 0
KUM1 141613Z 03013KT 26/14 A3031 RMK A01 T02640137  RH  045%=      5-min Rain = 0
KUM1 141614Z 03016KT 27/14 A3031 RMK A01 T02680137  RH  045%=      5-min Rain = 0
KUM1 141615Z 05016G21KT 27/13 A3031 RMK A01 T02660131  RH  043%=      5-min Rain = 0
KUM1 141616Z 04015G20KT 26/13 A3031 RMK A01 T02640130  RH  044%=      5-min Rain = 0
KUM1 141617Z 03014KT 27/13 A3031 RMK A01 T02650132  RH  044%=      5-min Rain = 0
KUM1 141618Z 03015KT 27/13 A3031 RMK A01 T02670131  RH  043%=      5-min Rain = 0
KUM1 141619Z 03015KT 27/13 A3031 RMK A01 T02660132  RH  044%=      5-min Rain = 0
KUM1 141620Z 03012KT 27/14 A3031 RMK A01 T02650135  RH  045%=      5-min Rain = 0
KUM1 141621Z 02010KT 27/13 A303 RMK A01 T02660134  RH  044%=      5-min Rain = 0
KUM1 141622Z 02011KT 27/13 A303 RMK A01 T02660133  RH  044%=      5-min Rain = 0
KUM1 141623Z 02009KT 27/13 A303 RMK A01 T02650130  RH  043%=      5-min Rain = 0
KUM1 141624Z 03010KT 27/13 A303 RMK A01 T02660132  RH  044%=      5-min Rain = 0
KUM1 141625Z 03012KT 27/13 A303 RMK A01 T02690132  RH  043%=      5-min Rain = 0
KUM1 141626Z 03014KT 27/13 A303 RMK A01 T02700133  RH  043%=      5-min Rain = 0
KUM1 141627Z 04016KT 27/13 A303 RMK A01 T02720132  RH  042%=      5-min Rain = 0
KUM1 141628Z 03019KT 27/13 A303 RMK A01 T02710131  RH  042%=      5-min Rain = 0
KUM1 141629Z 02017KT 27/13 A303 RMK A01 T02660131  RH  043%=      5-min Rain = 0
KUM1 141630Z 03013KT 27/13 A303 RMK A01 T02650133  RH  044%=      5-min Rain = 0
KUM1 141631Z 02012KT 27/13 A303 RMK A01 T02650134  RH  044%=      5-min Rain = 0
KUM1 141632Z 02010KT 26/13 A3029 RMK A01 T02630134  RH  045%=      5-min Rain = 0
KUM1 141633Z 03013KT 26/14 A303 RMK A01 T02640136  RH  045%=      5-min Rain = 0
KUM1 141634Z 04012KT 27/14 A303 RMK A01 T02650137  RH  045%=      5-min Rain = 0
KUM1 141635Z 04014KT 27/14 A303 RMK A01 T02670138  RH  045%=      5-min Rain = 0
KUM1 141636Z 05016G25KT 27/14 A303 RMK A01 T02680137  RH  045%=      5-min Rain = 0
KUM1 141637Z 05019KT 27/14 A3031 RMK A01 T02660142  RH  046%=      5-min Rain = 0
KUM1 141638Z 05018G23KT 27/14 A3031 RMK A01 T02650142  RH  047%=      5-min Rain = 0
KUM1 141639Z 05016KT 26/14 A3031 RMK A01 T02620139  RH  047%=      5-min Rain = 0
KUM1 141640Z 05014G19KT 26/14 A3031 RMK A01 T02600138  RH  047%=      5-min Rain = 0
KUM1 141641Z 06015KT 26/14 A3031 RMK A01 T02600136  RH  046%=      5-min Rain = 0
KUM1 141642Z 05017KT 26/14 A3031 RMK A01 T02590137  RH  047%=      5-min Rain = 0
KUM1 141643Z 04017KT 26/14 A3031 RMK A01 T02610139  RH  047%=      5-min Rain = 0
KUM1 141644Z 04016KT 26/14 A3031 RMK A01 T02610138  RH  047%=      5-min Rain = 0
KUM1 141645Z 04016G21KT 26/14 A3031 RMK A01 T02620138  RH  046%=      5-min Rain = 0
KUM1 141646Z 04019KT 26/14 A3031 RMK A01 T02630135  RH  045%=      5-min Rain = 0
KUM1 141647Z 03017KT 26/13 A3031 RMK A01 T02620134  RH  045%=      5-min Rain = 0
KUM1 141648Z 03016KT 26/13 A3031 RMK A01 T02610134  RH  046%=      5-min Rain = 0
KUM1 141649Z 02015KT 26/13 A3031 RMK A01 T02580134  RH  046%=      5-min Rain = 0
KUM1 141650Z 03014KT 26/13 A3031 RMK A01 T02590133  RH  046%=      5-min Rain = 0
KUM1 141651Z 03016KT 26/13 A3031 RMK A01 T02630134  RH  045%=      5-min Rain = 0
KUM1 141652Z 03017KT 26/13 A3031 RMK A01 T02640133  RH  044%=      5-min Rain = 0
KUM1 141653Z 03019KT 26/13 A3031 RMK A01 T02640132  RH  044%=      5-min Rain = 0
KUM1 141654Z 03016KT 26/13 A3031 RMK A01 T02620130  RH  044%=      5-min Rain = 0
KUM1 141655Z 03014KT 26/13 A3031 RMK A01 T02630132  RH  044%=      5-min Rain = 0
KUM1 141656Z 03015KT 27/13 A3031 RMK A01 T02690132  RH  043%=      5-min Rain = 0
KUM1 141657Z 03014KT 27/13 A303 RMK A01 T02670130  RH  043%=      5-min Rain = 0
KUM1 141658Z 04011KT 26/13 A303 RMK A01 T02640132  RH  044%=      5-min Rain = 0
KUM1 141659Z 03013KT 27/13 A303 RMK A01 T02650132  RH  044%=      5-min Rain = 0
KUM1 141700Z 03014KT 27/13 A303 RMK A01 T02650132  RH  044%=      5-min Rain = 0
KUM1 141701Z 03017KT 27/13 A303 RMK A01 T02660133  RH  044%=      5-min Rain = 0
KUM1 141702Z 03015KT 27/13 A303 RMK A01 T02670132  RH  043%=      5-min Rain = 0
KUM1 141703Z 03015KT 27/13 A303 RMK A01 T02660133  RH  044%=      5-min Rain = 0
KUM1 141704Z 02018KT 27/13 A303 RMK A01 T02650134  RH  044%=      5-min Rain = 0
KUM1 141705Z 02017KT 26/13 A303 RMK A01 T02640133  RH  044%=      5-min Rain = 0
KUM1 141706Z 02015KT 26/13 A303 RMK A01 T02610133  RH  045%=      5-min Rain = 0
KUM1 141707Z 03015G20KT 27/14 A303 RMK A01 T02650136  RH  045%=      5-min Rain = 0
KUM1 141708Z 02014KT 27/13 A303 RMK A01 T02680134  RH  044%=      5-min Rain = 0
KUM1 141709Z 02015KT 27/13 A303 RMK A01 T02680133  RH  043%=      5-min Rain = 0
KUM1 141710Z 03015KT 27/13 A303 RMK A01 T02670133  RH  043%=      5-min Rain = 0
KUM1 141711Z 02014KT 27/13 A303 RMK A01 T02650132  RH  044%=      5-min Rain = 0
KUM1 141712Z 02017KT 27/13 A303 RMK A01 T02650134  RH  044%=      5-min Rain = 0
KUM1 141713Z 04014KT 27/13 A303 RMK A01 T02670132  RH  043%=      5-min Rain = 0
KUM1 141714Z 05017KT 27/13 A303 RMK A01 T02650133  RH  044%=      5-min Rain = 0
KUM1 141715Z 04015KT 26/13 A303 RMK A01 T02640132  RH  044%=      5-min Rain = 0
KUM1 141716Z 04014KT 26/13 A303 RMK A01 T02640132  RH  044%=      5-min Rain = 0
KUM1 141717Z 05012KT 27/13 A303 RMK A01 T02650132  RH  044%=      5-min Rain = 0
KUM1 141718Z 04014KT 26/13 A3029 RMK A01 T02640133  RH  044%=      5-min Rain = 0
KUM1 141719Z 04014KT 27/13 A3029 RMK A01 T02660133  RH  044%=      5-min Rain = 0
KUM1 141720Z 03013KT 27/13 A3029 RMK A01 T02670133  RH  044%=      5-min Rain = 0
KUM1 141721Z 05013KT 27/14 A3029 RMK A01 T02680135  RH  044%=      5-min Rain = 0
KUM1 141722Z 05014KT 27/14 A3029 RMK A01 T02730135  RH  042%=      5-min Rain = 0
KUM1 141723Z 04016KT 27/13 A3029 RMK A01 T02720132  RH  042%=      5-min Rain = 0
KUM1 141724Z 04016KT 27/13 A3029 RMK A01 T02680134  RH  044%=      5-min Rain = 0
KUM1 141725Z 05014KT 27/13 A3029 RMK A01 T02680134  RH  044%=      5-min Rain = 0
KUM1 141726Z 06014KT 27/13 A3028 RMK A01 T02700134  RH  043%=      5-min Rain = 0
KUM1 141727Z 06014KT 27/13 A3028 RMK A01 T02700133  RH  043%=      5-min Rain = 0
KUM1 141728Z 05014KT 27/13 A3028 RMK A01 T02700134  RH  043%=      5-min Rain = 0
KUM1 141729Z 06012KT 27/13 A3028 RMK A01 T02700134  RH  043%=      5-min Rain = 0
KUM1 141730Z 04015KT 27/14 A3028 RMK A01 T02710135  RH  043%=      5-min Rain = 0
KUM1 141731Z 04016KT 27/13 A3028 RMK A01 T02740134  RH  042%=      5-min Rain = 0
KUM1 141732Z 05016KT 28/13 A3028 RMK A01 T02750133  RH  042%=      5-min Rain = 0
KUM1 141733Z 05013KT 27/13 A3028 RMK A01 T02740132  RH  042%=      5-min Rain = 0
KUM1 141734Z 04014KT 27/13 A3028 RMK A01 T02700133  RH  043%=      5-min Rain = 0
KUM1 141735Z 05016KT 27/14 A3028 RMK A01 T02710135  RH  043%=      5-min Rain = 0
KUM1 141736Z 06013KT 27/14 A3028 RMK A01 T02740135  RH  042%=      5-min Rain = 0
KUM1 141737Z 05014KT 27/14 A3028 RMK A01 T02740136  RH  043%=      5-min Rain = 0
KUM1 141738Z 06015G20KT 28/14 A3028 RMK A01 T02770136  RH  042%=      5-min Rain = 0
KUM1 141739Z 05014KT 28/13 A3028 RMK A01 T02760134  RH  042%=      5-min Rain = 0
KUM1 141740Z 05015KT 27/13 A3028 RMK A01 T02740134  RH  042%=      5-min Rain = 0
KUM1 141741Z 05011KT 27/13 A3028 RMK A01 T02740134  RH  042%=      5-min Rain = 0
KUM1 141742Z 07012KT 27/13 A3028 RMK A01 T02700134  RH  043%=      5-min Rain = 0
KUM1 141743Z 07015KT 27/13 A3027 RMK A01 T02670134  RH  044%=      5-min Rain = 0
KUM1 141744Z 06011G16KT 27/13 A3028 RMK A01 T02660134  RH  044%=      5-min Rain = 0
KUM1 141745Z 04014KT 27/13 A3028 RMK A01 T02660132  RH  043%=      5-min Rain = 0
KUM1 141746Z 04012KT 27/13 A3028 RMK A01 T02650132  RH  044%=      5-min Rain = 0
KUM1 141747Z 03013KT 26/13 A3027 RMK A01 T02640133  RH  044%=      5-min Rain = 0
KUM1 141748Z 04012KT 26/13 A3027 RMK A01 T02640133  RH  044%=      5-min Rain = 0
KUM1 141749Z 04014KT 26/13 A3027 RMK A01 T02640133  RH  044%=      5-min Rain = 0
KUM1 141750Z 05015KT 26/13 A3027 RMK A01 T02640131  RH  044%=      5-min Rain = 0
KUM1 141751Z 03014KT 26/13 A3028 RMK A01 T02630130  RH  044%=      5-min Rain = 0
KUM1 141752Z 04013KT 26/13 A3028 RMK A01 T02620130  RH  044%=      5-min Rain = 0
KUM1 141753Z 03014KT 26/13 A3028 RMK A01 T02630132  RH  044%=      5-min Rain = 0
KUM1 141754Z 03013KT 27/13 A3028 RMK A01 T02650132  RH  044%=      5-min Rain = 0
KUM1 141755Z 04011KT 27/13 A3028 RMK A01 T02650132  RH  044%=      5-min Rain = 0
KUM1 141756Z 04011KT 26/13 A3028 RMK A01 T02640132  RH  044%=      5-min Rain = 0
KUM1 141757Z 03014KT 27/13 A3028 RMK A01 T02650132  RH  044%=      5-min Rain = 0
KUM1 141758Z 04015KT 27/13 A3028 RMK A01 T02680134  RH  044%=      5-min Rain = 0
KUM1 141759Z 03013KT 27/13 A3028 RMK A01 T02670133  RH  044%=      5-min Rain = 0
KUM1 141800Z 03012KT 27/13 A3028 RMK A01 T02660134  RH  044%=      5-min Rain = 0
KUM1 141801Z 03010KT 27/14 A3027 RMK A01 T02680135  RH  044%=      5-min Rain = 0
KUM1 141802Z 04010KT 27/13 A3027 RMK A01 T02700134  RH  043%=      5-min Rain = 0
KUM1 141803Z 05013KT 27/13 A3027 RMK A01 T02690133  RH  043%=      5-min Rain = 0
KUM1 141804Z 03011KT 27/13 A3027 RMK A01 T02660133  RH  044%=      5-min Rain = 0
KUM1 141805Z 03011KT 27/14 A3027 RMK A01 T02690135  RH  044%=      5-min Rain = 0
KUM1 141806Z 02010KT 27/14 A3027 RMK A01 T02730135  RH  043%=      5-min Rain = 0
KUM1 141807Z 02012KT 28/14 A3027 RMK A01 T02760135  RH  042%=      5-min Rain = 0
KUM1 141808Z 02012KT 28/13 A3027 RMK A01 T02790133  RH  041%=      5-min Rain = 0
KUM1 141809Z 02009KT 28/13 A3027 RMK A01 T02770133  RH  041%=      5-min Rain = 0
KUM1 141810Z 03007KT 27/13 A3027 RMK A01 T02720134  RH  042%=      5-min Rain = 0
KUM1 141811Z 04012KT 27/14 A3027 RMK A01 T02700135  RH  043%=      5-min Rain = 0
KUM1 141812Z 06011KT 27/14 A3027 RMK A01 T02700136  RH  044%=      5-min Rain = 0
KUM1 141813Z 05011KT 27/14 A3027 RMK A01 T02690136  RH  044%=      5-min Rain = 0
KUM1 141814Z 03010KT 27/14 A3027 RMK A01 T02680135  RH  044%=      5-min Rain = 0
KUM1 141815Z 03008KT 27/14 A3027 RMK A01 T02690136  RH  044%=      5-min Rain = 0
KUM1 141816Z 03007KT 27/14 A3027 RMK A01 T02710137  RH  043%=      5-min Rain = 0
KUM1 141817Z 03008KT 28/14 A3027 RMK A01 T02750137  RH  043%=      5-min Rain = 0
KUM1 141818Z 05004KT 28/14 A3027 RMK A01 T02750136  RH  042%=      5-min Rain = 0
KUM1 141819Z 04005KT 27/14 A3027 RMK A01 T02730135  RH  043%=      5-min Rain = 0
KUM1 141820Z 04002KT 27/14 A3026 RMK A01 T02710135  RH  043%=      5-min Rain = 0
KUM1 141821Z 01005G12KT 27/14 A3026 RMK A01 T02710136  RH  043%=      5-min Rain = 0
KUM1 141822Z 00007KT 27/14 A3026 RMK A01 T02730135  RH  043%=      5-min Rain = 0
KUM1 141823Z 35002KT 27/14 A3026 RMK A01 T02740135  RH  042%=      5-min Rain = 0
KUM1 141824Z 02005KT 27/14 A3026 RMK A01 T02720135  RH  043%=      5-min Rain = 0
KUM1 141825Z 02008KT 27/13 A3026 RMK A01 T02710133  RH  043%=      5-min Rain = 0
KUM1 141826Z 03006KT 27/13 A3025 RMK A01 T02680132  RH  043%=      5-min Rain = 0
KUM1 141827Z 04004KT 26/13 A3025 RMK A01 T02640131  RH  044%=      5-min Rain = 0
KUM1 141828Z 36004KT 26/13 A3025 RMK A01 T02610131  RH  045%=      5-min Rain = 0
KUM1 141829Z 35003KT 26/13 A3025 RMK A01 T02600131  RH  045%=      5-min Rain = 0
KUM1 141830Z 36003KT 26/13 A3025 RMK A01 T02590130  RH  045%=      5-min Rain = 0
KUM1 141831Z 01002KT 26/13 A3025 RMK A01 T02590129  RH  045%=      5-min Rain = 0
KUM1 141832Z 01001KT 26/13 A3025 RMK A01 T02580130  RH  045%=      5-min Rain = 0
KUM1 141833Z 35002KT 26/13 A3025 RMK A01 T02590130  RH  045%=      5-min Rain = 0
KUM1 141834Z 34003KT 26/13 A3025 RMK A01 T02610132  RH  045%=      5-min Rain = 0
KUM1 141835Z 00003KT 26/13 A3025 RMK A01 T02600131  RH  045%=      5-min Rain = 0
KUM1 141836Z 03004KT 26/13 A3025 RMK A01 T02590133  RH  046%=      5-min Rain = 0
KUM1 141837Z 04005KT 26/13 A3024 RMK A01 T02590133  RH  045%=      5-min Rain = 0
KUM1 141838Z 04004KT 26/13 A3024 RMK A01 T02600132  RH  045%=      5-min Rain = 0
KUM1 141839Z 05003KT 26/13 A3024 RMK A01 T02600132  RH  045%=      5-min Rain = 0
KUM1 141840Z 05002KT 26/13 A3024 RMK A01 T02590132  RH  046%=      5-min Rain = 0
KUM1 141841Z 07002KT 26/13 A3024 RMK A01 T02580132  RH  046%=      5-min Rain = 0
KUM1 141842Z 09003KT 26/13 A3024 RMK A01 T02580133  RH  046%=      5-min Rain = 0
KUM1 141843Z 09002KT 26/13 A3024 RMK A01 T02580133  RH  046%=      5-min Rain = 0
KUM1 141844Z 08002KT 26/13 A3024 RMK A01 T02590133  RH  046%=      5-min Rain = 0
KUM1 141845Z 09002KT 26/13 A3023 RMK A01 T02590134  RH  046%=      5-min Rain = 0
KUM1 141846Z 09002KT 26/13 A3023 RMK A01 T02590134  RH  046%=      5-min Rain = 0
KUM1 141847Z 10003KT 26/13 A3023 RMK A01 T02590134  RH  046%=      5-min Rain = 0
KUM1 141848Z 10003KT 26/13 A3023 RMK A01 T02590134  RH  046%=      5-min Rain = 0
KUM1 141849Z 12002KT 26/13 A3023 RMK A01 T02590133  RH  046%=      5-min Rain = 0
KUM1 141850Z 15003KT 26/13 A3022 RMK A01 T02590133  RH  046%=      5-min Rain = 0
KUM1 141851Z 15003KT 26/13 A3022 RMK A01 T02600134  RH  046%=      5-min Rain = 0
KUM1 141852Z 17006KT 26/13 A3022 RMK A01 T02610134  RH  045%=      5-min Rain = 0
KUM1 141853Z 16005KT 26/14 A3022 RMK A01 T02630135  RH  045%=      5-min Rain = 0
KUM1 141854Z 18005KT 27/13 A3022 RMK A01 T02650134  RH  045%=      5-min Rain = 0
KUM1 141855Z 18007KT 27/13 A3022 RMK A01 T02670134  RH  044%=      5-min Rain = 0
KUM1 141856Z 17007KT 27/13 A3022 RMK A01 T02690132  RH  043%=      5-min Rain = 0
KUM1 141857Z 16007KT 27/13 A3021 RMK A01 T02700131  RH  042%=      5-min Rain = 0
KUM1 141858Z 18006KT 27/13 A3021 RMK A01 T02710133  RH  043%=      5-min Rain = 0
KUM1 141859Z 19010KT 27/13 A3021 RMK A01 T02730134  RH  042%=      5-min Rain = 0
KUM1 141900Z 19009KT 27/13 A3021 RMK A01 T02740132  RH  042%=      5-min Rain = 0
KUM1 141901Z 18009KT 27/13 A3021 RMK A01 T02730132  RH  042%=      5-min Rain = 0
KUM1 141902Z 18009KT 27/13 A3021 RMK A01 T02730130  RH  041%=      5-min Rain = 0
KUM1 141903Z 17009KT 27/13 A3021 RMK A01 T02730128  RH  041%=      5-min Rain = 0
KUM1 141904Z 17008KT 28/13 A3021 RMK A01 T02750127  RH  040%=      5-min Rain = 0
KUM1 141905Z 18007KT 28/13 A3021 RMK A01 T02750127  RH  040%=      5-min Rain = 0
KUM1 141906Z 21009KT 28/13 A3021 RMK A01 T02780129  RH  040%=      5-min Rain = 0
KUM1 141907Z 20008KT 28/13 A3021 RMK A01 T02780127  RH  039%=      5-min Rain = 0
KUM1 141908Z 21007KT 28/13 A3021 RMK A01 T02770128  RH  040%=      5-min Rain = 0
KUM1 141909Z 20006KT 28/13 A3021 RMK A01 T02780130  RH  040%=      5-min Rain = 0
KUM1 141910Z 18006KT 28/13 A3021 RMK A01 T02800131  RH  040%=      5-min Rain = 0
KUM1 141911Z 20007KT 28/13 A3022 RMK A01 T02830131  RH  039%=      5-min Rain = 0
KUM1 141912Z 20004KT 28/13 A3022 RMK A01 T02840130  RH  039%=      5-min Rain = 0
KUM1 141913Z 14005KT 29/13 A3022 RMK A01 T02870132  RH  038%=      5-min Rain = 0
KUM1 141914Z 14003KT 29/13 A3022 RMK A01 T02910130  RH  037%=      5-min Rain = 0
KUM1 141915Z 17002KT 29/13 A3022 RMK A01 T02940130  RH  037%=      5-min Rain = 0
KUM1 141916Z 16003KT 30/13 A3022 RMK A01 T02960131  RH  036%=      5-min Rain = 0
KUM1 141917Z 14002KT 30/13 A3022 RMK A01 T02970129  RH  036%=      5-min Rain = 0
KUM1 141918Z 13003KT 30/13 A3022 RMK A01 T02970130  RH  036%=      5-min Rain = 0
KUM1 141919Z 17006KT 30/13 A3022 RMK A01 T02980128  RH  035%=      5-min Rain = 0
KUM1 141920Z 17003KT 30/13 A3022 RMK A01 T02990127  RH  035%=      5-min Rain = 0
KUM1 141921Z 11003KT 30/13 A3022 RMK A01 T02990128  RH  035%=      5-min Rain = 0
KUM1 141922Z 07004KT 30/13 A3022 RMK A01 T02990127  RH  035%=      5-min Rain = 0
KUM1 141923Z 13005KT 30/13 A3022 RMK A01 T02980127  RH  035%=      5-min Rain = 0
KUM1 141924Z 14005KT 30/13 A3022 RMK A01 T03000128  RH  035%=      5-min Rain = 0
KUM1 141925Z 10004KT 30/13 A3022 RMK A01 T03040129  RH  034%=      5-min Rain = 0
KUM1 141926Z 09003KT 31/13 A3022 RMK A01 T03050126  RH  033%=      5-min Rain = 0
KUM1 141927Z 08002KT 30/12 A3022 RMK A01 T03010124  RH  034%=      5-min Rain = 0
KUM1 141928Z 35000KT 30/12 A3022 RMK A01 T03000124  RH  034%=      5-min Rain = 0
KUM1 141929Z 01002KT 30/12 A3022 RMK A01 T03000124  RH  034%=      5-min Rain = 0
KUM1 141930Z 35002KT 30/13 A3022 RMK A01 T03000125  RH  034%=      5-min Rain = 0
KUM1 141931Z 07004KT 30/13 A3022 RMK A01 T03010127  RH  034%=      5-min Rain = 0
KUM1 141932Z 08005KT 30/13 A3022 RMK A01 T03020125  RH  034%=      5-min Rain = 0
KUM1 141933Z 09005KT 30/12 A3022 RMK A01 T03000124  RH  034%=      5-min Rain = 0
KUM1 141934Z 09005KT 30/13 A3022 RMK A01 T03010126  RH  034%=      5-min Rain = 0
KUM1 141935Z 06003KT 30/13 A3022 RMK A01 T03030126  RH  034%=      5-min Rain = 0
KUM1 141936Z 00002KT 30/12 A3021 RMK A01 T03040124  RH  033%=      5-min Rain = 0
KUM1 141937Z 02002KT 30/12 A3021 RMK A01 T03030123  RH  033%=      5-min Rain = 0
KUM1 141938Z 06003KT 30/12 A3021 RMK A01 T03010123  RH  034%=      5-min Rain = 0
KUM1 141939Z 09006KT 30/13 A3022 RMK A01 T03030126  RH  034%=      5-min Rain = 0
KUM1 141940Z 08007KT 31/12 A3022 RMK A01 T03060124  RH  033%=      5-min Rain = 0
KUM1 141941Z 08006KT 31/12 A3022 RMK A01 T03070122  RH  032%=      5-min Rain = 0
KUM1 141942Z 07007KT 31/12 A3022 RMK A01 T03050122  RH  033%=      5-min Rain = 0
KUM1 141943Z 07006KT 31/12 A3022 RMK A01 T03050123  RH  033%=      5-min Rain = 0
KUM1 141944Z 08005KT 30/12 A3022 RMK A01 T03030122  RH  033%=      5-min Rain = 0
KUM1 141945Z 11001KT 30/12 A3022 RMK A01 T03010121  RH  033%=      5-min Rain = 0
KUM1 141946Z 03005G10KT 30/12 A3022 RMK A01 T03010122  RH  033%=      5-min Rain = 0
KUM1 141947Z 02008KT 31/12 A3022 RMK A01 T03060124  RH  033%=      5-min Rain = 0
KUM1 141948Z 00007KT 31/12 A3022 RMK A01 T03090123  RH  032%=      5-min Rain = 0
KUM1 141949Z 00006KT 31/12 A3022 RMK A01 T03090122  RH  032%=      5-min Rain = 0
KUM1 141950Z 05004KT 31/12 A3022 RMK A01 T03090122  RH  032%=      5-min Rain = 0
KUM1 141951Z 04005KT 31/12 A3022 RMK A01 T03110123  RH  032%=      5-min Rain = 0
KUM1 141952Z 05003KT 31/12 A3022 RMK A01 T03100120  RH  031%=      5-min Rain = 0
KUM1 141953Z 03005KT 31/12 A3022 RMK A01 T03080121  RH  032%=      5-min Rain = 0
KUM1 141954Z 03007KT 31/12 A3022 RMK A01 T03080121  RH  032%=      5-min Rain = 0
KUM1 141955Z 04008KT 31/12 A3022 RMK A01 T03080121  RH  032%=      5-min Rain = 0
KUM1 141956Z 04006KT 31/12 A3022 RMK A01 T03090121  RH  031%=      5-min Rain = 0
KUM1 141957Z 06007KT 31/12 A3022 RMK A01 T03070119  RH  032%=      5-min Rain = 0
KUM1 141958Z 06004KT 31/12 A3022 RMK A01 T03060118  RH  031%=      5-min Rain = 0
KUM1 141959Z 07006KT 31/12 A3022 RMK A01 T03050121  RH  032%=      5-min Rain = 0
KUM1 142000Z 07006KT 30/12 A3022 RMK A01 T03040121  RH  032%=      5-min Rain = 0
KUM1 142001Z 07006KT 31/12 A3022 RMK A01 T03050119  RH  032%=      5-min Rain = 0
KUM1 142002Z 04007KT 31/12 A3022 RMK A01 T03080120  RH  032%=      5-min Rain = 0
KUM1 142003Z 05005KT 31/12 A3022 RMK A01 T03100120  RH  031%=      5-min Rain = 0
KUM1 142004Z 07006KT 31/12 A3021 RMK A01 T03100120  RH  031%=      5-min Rain = 0
KUM1 142005Z 06005KT 31/12 A3021 RMK A01 T03090117  RH  031%=      5-min Rain = 0
KUM1 142006Z 03006KT 31/12 A3021 RMK A01 T03080121  RH  032%=      5-min Rain = 0
KUM1 142007Z 02006KT 31/12 A3021 RMK A01 T03070121  RH  032%=      5-min Rain = 0
KUM1 142008Z 04008KT 31/12 A3021 RMK A01 T03070121  RH  032%=      5-min Rain = 0
KUM1 142009Z 05006KT 31/12 A3021 RMK A01 T03070121  RH  032%=      5-min Rain = 0
KUM1 142010Z 07004KT 31/12 A3021 RMK A01 T03060120  RH  032%=      5-min Rain = 0
KUM1 142011Z 12003KT 31/12 A3021 RMK A01 T03050119  RH  032%=      5-min Rain = 0
KUM1 142012Z 14003KT 31/12 A3021 RMK A01 T03050119  RH  032%=      5-min Rain = 0
KUM1 142013Z 07003KT 31/12 A3021 RMK A01 T03060119  RH  032%=      5-min Rain = 0
KUM1 142014Z 07003KT 31/12 A3021 RMK A01 T03090118  RH  031%=      5-min Rain = 0
KUM1 142015Z 08003KT 31/12 A3021 RMK A01 T03090119  RH  031%=      5-min Rain = 0
KUM1 142016Z 32003G8KT 31/12 A3021 RMK A01 T03120120  RH  031%=      5-min Rain = 0
KUM1 142017Z 05005KT 32/13 A3021 RMK A01 T03160125  RH  031%=      5-min Rain = 0
KUM1 142018Z 03004KT 32/13 A3021 RMK A01 T03200125  RH  030%=      5-min Rain = 0
KUM1 142019Z 04005KT 32/13 A3021 RMK A01 T03210126  RH  031%=      5-min Rain = 0
KUM1 142020Z 05006KT 32/12 A3021 RMK A01 T03200123  RH  030%=      5-min Rain = 0
KUM1 142021Z 06004KT 32/12 A3021 RMK A01 T03160122  RH  031%=      5-min Rain = 0
KUM1 142022Z 02008KT 32/12 A3021 RMK A01 T03150122  RH  031%=      5-min Rain = 0
KUM1 142023Z 36009KT 32/12 A3021 RMK A01 T03160121  RH  030%=      5-min Rain = 0
KUM1 142024Z 00008KT 31/12 A302 RMK A01 T03140121  RH  031%=      5-min Rain = 0
KUM1 142025Z 36007KT 31/12 A302 RMK A01 T03140121  RH  031%=      5-min Rain = 0
KUM1 142026Z 35008KT 31/12 A302 RMK A01 T03140121  RH  031%=      5-min Rain = 0
KUM1 142027Z 34004KT 31/12 A302 RMK A01 T03120120  RH  031%=      5-min Rain = 0
KUM1 142028Z 34006KT 31/12 A302 RMK A01 T03100120  RH  031%=      5-min Rain = 0
KUM1 142029Z 31006KT 31/12 A302 RMK A01 T03120121  RH  031%=      5-min Rain = 0
KUM1 142030Z 31004KT 32/12 A302 RMK A01 T03150122  RH  031%=      5-min Rain = 0
KUM1 142031Z 33003KT 32/12 A302 RMK A01 T03160120  RH  030%=      5-min Rain = 0
KUM1 142032Z 35005KT 32/12 A302 RMK A01 T03150121  RH  030%=      5-min Rain = 0
KUM1 142033Z 01005KT 32/12 A302 RMK A01 T03160120  RH  030%=      5-min Rain = 0
KUM1 142034Z 01004KT 32/12 A302 RMK A01 T03160119  RH  030%=      5-min Rain = 0
KUM1 142035Z 03003KT 32/12 A302 RMK A01 T03150119  RH  030%=      5-min Rain = 0
KUM1 142036Z 03001KT 31/12 A302 RMK A01 T03130118  RH  030%=      5-min Rain = 0
KUM1 142037Z 18000KT 31/12 A302 RMK A01 T03110116  RH  030%=      5-min Rain = 0
KUM1 142038Z 17003KT 31/12 A302 RMK A01 T03090116  RH  031%=      5-min Rain = 0
KUM1 142039Z 18002KT 31/12 A302 RMK A01 T03080116  RH  031%=      5-min Rain = 0
KUM1 142040Z 18003KT 31/12 A302 RMK A01 T03080117  RH  031%=      5-min Rain = 0
KUM1 142041Z 17004KT 31/12 A302 RMK A01 T03110118  RH  030%=      5-min Rain = 0
KUM1 142042Z 18003KT 31/12 A302 RMK A01 T03120117  RH  030%=      5-min Rain = 0
KUM1 142043Z 19002KT 31/12 A302 RMK A01 T03110117  RH  030%=      5-min Rain = 0
KUM1 142044Z 19003KT 31/12 A3019 RMK A01 T03110117  RH  030%=      5-min Rain = 0
KUM1 142045Z 20001KT 31/12 A3019 RMK A01 T03110117  RH  030%=      5-min Rain = 0
KUM1 142046Z 03002KT 31/12 A3019 RMK A01 T03110116  RH  030%=      5-min Rain = 0
KUM1 142047Z 02005KT 31/12 A3019 RMK A01 T03140120  RH  031%=      5-min Rain = 0
KUM1 142048Z 36004KT 32/12 A3019 RMK A01 T03150119  RH  030%=      5-min Rain = 0
KUM1 142049Z 01003KT 32/12 A3019 RMK A01 T03160118  RH  030%=      5-min Rain = 0
KUM1 142050Z 02003KT 32/12 A3019 RMK A01 T03150117  RH  030%=      5-min Rain = 0
KUM1 142051Z 03004KT 32/12 A3019 RMK A01 T03150119  RH  030%=      5-min Rain = 0
KUM1 142052Z 04006KT 32/12 A3019 RMK A01 T03180120  RH  030%=      5-min Rain = 0
KUM1 142053Z 04004KT 32/12 A3019 RMK A01 T03170118  RH  030%=      5-min Rain = 0
KUM1 142054Z 05002KT 31/12 A3019 RMK A01 T03130118  RH  030%=      5-min Rain = 0
KUM1 142055Z 33001KT 31/12 A3019 RMK A01 T03110119  RH  031%=      5-min Rain = 0
KUM1 142056Z 30001KT 31/12 A3019 RMK A01 T03130119  RH  030%=      5-min Rain = 0
KUM1 142057Z 35004G10KT 32/12 A3019 RMK A01 T03150121  RH  031%=      5-min Rain = 0
KUM1 142058Z 02007KT 32/12 A3019 RMK A01 T03200122  RH  030%=      5-min Rain = 0
KUM1 142059Z 01008KT 32/12 A3019 RMK A01 T03230121  RH  029%=      5-min Rain = 0
KUM1 142100Z 02007KT 32/12 A3019 RMK A01 T03220119  RH  029%=      5-min Rain = 0
KUM1 142101Z 05005KT 32/12 A3019 RMK A01 T03190119  RH  029%=      5-min Rain = 0
KUM1 142102Z 04007KT 32/12 A3019 RMK A01 T03190119  RH  030%=      5-min Rain = 0
KUM1 142103Z 03007KT 32/12 A3019 RMK A01 T03200120  RH  029%=      5-min Rain = 0
KUM1 142104Z 04006KT 32/12 A3019 RMK A01 T03200120  RH  029%=      5-min Rain = 0
KUM1 142105Z 04006KT 32/12 A3019 RMK A01 T03180121  RH  030%=      5-min Rain = 0
KUM1 142106Z 07008KT 32/12 A3019 RMK A01 T03170121  RH  030%=      5-min Rain = 0
KUM1 142107Z 06007KT 32/12 A3019 RMK A01 T03160123  RH  031%=      5-min Rain = 0
KUM1 142108Z 04008KT 32/12 A3019 RMK A01 T03180123  RH  030%=      5-min Rain = 0
KUM1 142109Z 05007KT 32/12 A3019 RMK A01 T03190122  RH  030%=      5-min Rain = 0
KUM1 142110Z 04007KT 32/12 A3018 RMK A01 T03180122  RH  030%=      5-min Rain = 0
KUM1 142111Z 03005KT 32/12 A3018 RMK A01 T03190122  RH  030%=      5-min Rain = 0
KUM1 142112Z 04005KT 32/12 A3018 RMK A01 T03190121  RH  030%=      5-min Rain = 0
KUM1 142113Z 04005KT 32/12 A3018 RMK A01 T03180121  RH  030%=      5-min Rain = 0
KUM1 142114Z 03006KT 32/12 A3018 RMK A01 T03180121  RH  030%=      5-min Rain = 0
KUM1 142115Z 05004KT 32/12 A3018 RMK A01 T03180120  RH  030%=      5-min Rain = 0
KUM1 142116Z 03006KT 32/12 A3018 RMK A01 T03180121  RH  030%=      5-min Rain = 0
KUM1 142117Z 04006KT 32/12 A3018 RMK A01 T03190120  RH  030%=      5-min Rain = 0
KUM1 142118Z 04005KT 32/12 A3018 RMK A01 T03190120  RH  030%=      5-min Rain = 0
KUM1 142119Z 02003KT 32/12 A3018 RMK A01 T03170120  RH  030%=      5-min Rain = 0
KUM1 142120Z 02002KT 32/12 A3018 RMK A01 T03160120  RH  030%=      5-min Rain = 0
KUM1 142121Z 36001KT 32/12 A3018 RMK A01 T03170120  RH  030%=      5-min Rain = 0
KUM1 142122Z 10002KT 32/12 A3018 RMK A01 T03200122  RH  030%=      5-min Rain = 0
KUM1 142123Z 13005KT 33/12 A3018 RMK A01 T03250121  RH  029%=      5-min Rain = 0
KUM1 142124Z 13003KT 33/12 A3018 RMK A01 T03250119  RH  029%=      5-min Rain = 0
KUM1 142125Z 13002KT 32/12 A3018 RMK A01 T03230121  RH  029%=      5-min Rain = 0
KUM1 142126Z 13005KT 33/12 A3018 RMK A01 T03260121  RH  029%=      5-min Rain = 0
KUM1 142127Z 13005KT 33/12 A3018 RMK A01 T03270120  RH  028%=      5-min Rain = 0
KUM1 142128Z 13002KT 33/12 A3017 RMK A01 T03250119  RH  029%=      5-min Rain = 0
KUM1 142129Z 10002KT 32/12 A3017 RMK A01 T03230120  RH  029%=      5-min Rain = 0
KUM1 142130Z 17002KT 32/12 A3017 RMK A01 T03230120  RH  029%=      5-min Rain = 0
KUM1 142131Z 18005KT 32/12 A3017 RMK A01 T03230119  RH  029%=      5-min Rain = 0
KUM1 142132Z 15003KT 32/12 A3017 RMK A01 T03200117  RH  029%=      5-min Rain = 0
KUM1 142133Z 13002KT 32/12 A3017 RMK A01 T03180119  RH  029%=      5-min Rain = 0
KUM1 142134Z 19001KT 32/12 A3017 RMK A01 T03190119  RH  029%=      5-min Rain = 0
KUM1 142135Z 22005KT 32/12 A3017 RMK A01 T03210121  RH  029%=      5-min Rain = 0
KUM1 142136Z 21005KT 33/12 A3017 RMK A01 T03250121  RH  029%=      5-min Rain = 0
KUM1 142137Z 20002KT 33/12 A3017 RMK A01 T03250120  RH  029%=      5-min Rain = 0
KUM1 142138Z 12002KT 33/12 A3017 RMK A01 T03250119  RH  028%=      5-min Rain = 0
KUM1 142139Z 11003KT 33/12 A3017 RMK A01 T03250117  RH  028%=      5-min Rain = 0
KUM1 142140Z 07004KT 32/12 A3017 RMK A01 T03230119  RH  029%=      5-min Rain = 0
KUM1 142141Z 06004KT 33/12 A3017 RMK A01 T03270120  RH  028%=      5-min Rain = 0
KUM1 142142Z 09000KT 33/12 A3017 RMK A01 T03250117  RH  028%=      5-min Rain = 0
KUM1 142143Z 11000KT 32/12 A3017 RMK A01 T03240119  RH  029%=      5-min Rain = 0
KUM1 142144Z 09002KT 32/12 A3017 RMK A01 T03240119  RH  028%=      5-min Rain = 0
KUM1 142145Z 07003KT 32/12 A3017 RMK A01 T03240118  RH  028%=      5-min Rain = 0
KUM1 142146Z 06002KT 32/12 A3017 RMK A01 T03240119  RH  029%=      5-min Rain = 0
KUM1 142147Z 09002KT 32/12 A3017 RMK A01 T03240118  RH  028%=      5-min Rain = 0
KUM1 142148Z 10004KT 33/12 A3016 RMK A01 T03260119  RH  028%=      5-min Rain = 0
KUM1 142149Z 08004KT 33/12 A3016 RMK A01 T03270119  RH  028%=      5-min Rain = 0
KUM1 142150Z 06006KT 33/12 A3016 RMK A01 T03260118  RH  028%=      5-min Rain = 0
KUM1 142151Z 03006KT 32/11 A3016 RMK A01 T03240112  RH  027%=      5-min Rain = 0
KUM1 142152Z 02004KT 32/11 A3016 RMK A01 T03230112  RH  028%=      5-min Rain = 0
KUM1 142153Z 36007KT 32/11 A3016 RMK A01 T03240112  RH  027%=      5-min Rain = 0
KUM1 142154Z 35007KT 33/11 A3016 RMK A01 T03260111  RH  027%=      5-min Rain = 0
KUM1 142155Z 33008KT 33/11 A3016 RMK A01 T03260112  RH  027%=      5-min Rain = 0
KUM1 142156Z 35008KT 33/11 A3016 RMK A01 T03270113  RH  027%=      5-min Rain = 0
KUM1 142157Z 35008KT 33/11 A3016 RMK A01 T03290112  RH  027%=      5-min Rain = 0
KUM1 142158Z 33009KT 33/11 A3016 RMK A01 T03300113  RH  027%=      5-min Rain = 0
KUM1 142159Z 33009KT 33/11 A3016 RMK A01 T03280113  RH  027%=      5-min Rain = 0
KUM1 142200Z 35008KT 33/11 A3016 RMK A01 T03260113  RH  027%=      5-min Rain = 0
KUM1 142201Z 34007KT 33/11 A3016 RMK A01 T03260112  RH  027%=      5-min Rain = 0
KUM1 142202Z 35007KT 33/11 A3016 RMK A01 T03260113  RH  027%=      5-min Rain = 0
KUM1 142203Z 34005KT 33/11 A3016 RMK A01 T03270114  RH  027%=      5-min Rain = 0
KUM1 142204Z 00006KT 33/11 A3016 RMK A01 T03270113  RH  027%=      5-min Rain = 0
KUM1 142205Z 32003KT 33/11 A3016 RMK A01 T03260113  RH  027%=      5-min Rain = 0
KUM1 142206Z 00004KT 33/11 A3016 RMK A01 T03260114  RH  027%=      5-min Rain = 0
KUM1 142207Z 04006KT 33/11 A3016 RMK A01 T03280111  RH  027%=      5-min Rain = 0
KUM1 142208Z 03005KT 33/11 A3016 RMK A01 T03280110  RH  026%=      5-min Rain = 0
KUM1 142209Z 06004KT 33/11 A3016 RMK A01 T03250109  RH  027%=      5-min Rain = 0
KUM1 142210Z 07003KT 32/11 A3016 RMK A01 T03220109  RH  027%=      5-min Rain = 0
KUM1 142211Z 02004KT 32/11 A3016 RMK A01 T03210110  RH  027%=      5-min Rain = 0
KUM1 142212Z 00006KT 32/11 A3016 RMK A01 T03210109  RH  027%=      5-min Rain = 0
KUM1 142213Z 00004KT 32/11 A3016 RMK A01 T03230109  RH  027%=      5-min Rain = 0
KUM1 142214Z 01002KT 32/11 A3016 RMK A01 T03230108  RH  027%=      5-min Rain = 0
KUM1 142215Z 32006KT 32/11 A3016 RMK A01 T03230110  RH  027%=      5-min Rain = 0
KUM1 142216Z 32007KT 33/11 A3016 RMK A01 T03250110  RH  027%=      5-min Rain = 0
KUM1 142217Z 35006KT 33/11 A3016 RMK A01 T03270110  RH  027%=      5-min Rain = 0
KUM1 142218Z 36002KT 33/11 A3016 RMK A01 T03260108  RH  026%=      5-min Rain = 0
KUM1 142219Z 08003KT 32/11 A3016 RMK A01 T03230108  RH  027%=      5-min Rain = 0
KUM1 142220Z 10002KT 32/11 A3015 RMK A01 T03220108  RH  027%=      5-min Rain = 0
KUM1 142221Z 03004G9KT 32/11 A3015 RMK A01 T03220109  RH  027%=      5-min Rain = 0
KUM1 142222Z 01005KT 32/11 A3015 RMK A01 T03230110  RH  027%=      5-min Rain = 0
KUM1 142223Z 04004KT 32/11 A3015 RMK A01 T03240110  RH  027%=      5-min Rain = 0
KUM1 142224Z 05007KT 33/11 A3015 RMK A01 T03250110  RH  027%=      5-min Rain = 0
KUM1 142225Z 03006KT 32/11 A3015 RMK A01 T03240109  RH  027%=      5-min Rain = 0
KUM1 142226Z 02007KT 32/11 A3015 RMK A01 T03240112  RH  027%=      5-min Rain = 0
KUM1 142227Z 04006KT 32/11 A3015 RMK A01 T03240112  RH  027%=      5-min Rain = 0
KUM1 142228Z 03008KT 32/11 A3015 RMK A01 T03240113  RH  027%=      5-min Rain = 0
KUM1 142229Z 03006KT 33/11 A3015 RMK A01 T03250112  RH  027%=      5-min Rain = 0
KUM1 142230Z 05004KT 33/11 A3015 RMK A01 T03250112  RH  027%=      5-min Rain = 0
KUM1 142231Z 04003KT 32/11 A3015 RMK A01 T03220111  RH  027%=      5-min Rain = 0
KUM1 142232Z 01005KT 32/11 A3015 RMK A01 T03210113  RH  028%=      5-min Rain = 0
KUM1 142233Z 35003KT 32/11 A3015 RMK A01 T03210112  RH  028%=      5-min Rain = 0
KUM1 142234Z 33004KT 32/11 A3015 RMK A01 T03210113  RH  028%=      5-min Rain = 0
KUM1 142235Z 30003KT 32/11 A3015 RMK A01 T03210112  RH  028%=      5-min Rain = 0
KUM1 142236Z 24002KT 32/11 A3015 RMK A01 T03200113  RH  028%=      5-min Rain = 0
KUM1 142237Z 33003KT 32/11 A3015 RMK A01 T03210113  RH  028%=      5-min Rain = 0
KUM1 142238Z 36008KT 33/12 A3015 RMK A01 T03250116  RH  028%=      5-min Rain = 0
KUM1 142239Z 35005KT 33/12 A3015 RMK A01 T03270115  RH  027%=      5-min Rain = 0
KUM1 142240Z 35004KT 32/12 A3015 RMK A01 T03220115  RH  028%=      5-min Rain = 0
KUM1 142241Z 01003KT 32/12 A3015 RMK A01 T03200115  RH  028%=      5-min Rain = 0
KUM1 142242Z 01003KT 32/11 A3015 RMK A01 T03200114  RH  028%=      5-min Rain = 0
KUM1 142243Z 04000KT 32/11 A3015 RMK A01 T03190113  RH  028%=      5-min Rain = 0
KUM1 142244Z 01002KT 32/11 A3015 RMK A01 T03190114  RH  028%=      5-min Rain = 0
KUM1 142245Z 04004KT 32/11 A3015 RMK A01 T03220114  RH  028%=      5-min Rain = 0
KUM1 142246Z 04003KT 32/11 A3015 RMK A01 T03230114  RH  028%=      5-min Rain = 0
KUM1 142247Z 35006KT 33/12 A3015 RMK A01 T03250115  RH  028%=      5-min Rain = 0
KUM1 142248Z 00005KT 33/12 A3015 RMK A01 T03270115  RH  027%=      5-min Rain = 0
KUM1 142249Z 35003KT 33/12 A3015 RMK A01 T03260115  RH  028%=      5-min Rain = 0
KUM1 142250Z 01001KT 33/11 A3015 RMK A01 T03260114  RH  027%=      5-min Rain = 0
KUM1 142251Z 05001KT 32/11 A3015 RMK A01 T03240113  RH  027%=      5-min Rain = 0
KUM1 142252Z 01004KT 32/11 A3015 RMK A01 T03240114  RH  028%=      5-min Rain = 0
KUM1 142253Z 35008KT 33/12 A3015 RMK A01 T03250115  RH  028%=      5-min Rain = 0
KUM1 142254Z 35005KT 33/12 A3015 RMK A01 T03270115  RH  027%=      5-min Rain = 0
KUM1 142255Z 35006KT 33/12 A3015 RMK A01 T03270116  RH  028%=      5-min Rain = 0
KUM1 142256Z 34007KT 33/12 A3015 RMK A01 T03280118  RH  028%=      5-min Rain = 0
KUM1 142257Z 35007KT 33/12 A3015 RMK A01 T03260119  RH  028%=      5-min Rain = 0
KUM1 142258Z 36007KT 33/12 A3015 RMK A01 T03250119  RH  028%=      5-min Rain = 0
KUM1 142259Z 01005KT 33/12 A3015 RMK A01 T03250119  RH  028%=      5-min Rain = 0
KUM1 142300Z 01005KT 33/12 A3015 RMK A01 T03250120  RH  029%=      5-min Rain = 0
KUM1 142301Z 00007KT 33/12 A3015 RMK A01 T03250119  RH  028%=      5-min Rain = 0
KUM1 142302Z 00005KT 32/12 A3015 RMK A01 T03240117  RH  028%=      5-min Rain = 0
KUM1 142303Z 35003KT 32/12 A3015 RMK A01 T03220116  RH  028%=      5-min Rain = 0
KUM1 142304Z 03004KT 32/12 A3015 RMK A01 T03200117  RH  029%=      5-min Rain = 0
KUM1 142305Z 03006KT 32/12 A3015 RMK A01 T03220118  RH  029%=      5-min Rain = 0
KUM1 142306Z 05005KT 33/12 A3015 RMK A01 T03250118  RH  028%=      5-min Rain = 0
KUM1 142307Z 05005KT 33/12 A3015 RMK A01 T03260118  RH  028%=      5-min Rain = 0
KUM1 142308Z 03003KT 33/12 A3015 RMK A01 T03270118  RH  028%=      5-min Rain = 0
KUM1 142309Z 34005KT 33/12 A3015 RMK A01 T03290119  RH  028%=      5-min Rain = 0
KUM1 142310Z 33004KT 33/12 A3015 RMK A01 T03290120  RH  028%=      5-min Rain = 0
KUM1 142311Z 33006KT 33/12 A3015 RMK A01 T03280119  RH  028%=      5-min Rain = 0
KUM1 142312Z 33005KT 33/12 A3015 RMK A01 T03270119  RH  028%=      5-min Rain = 0
KUM1 142313Z 32004KT 33/12 A3014 RMK A01 T03260119  RH  028%=      5-min Rain = 0
KUM1 142314Z 03006KT 33/12 A3015 RMK A01 T03260118  RH  028%=      5-min Rain = 0
KUM1 142315Z 05008KT 33/12 A3014 RMK A01 T03260118  RH  028%=      5-min Rain = 0
KUM1 142316Z 03006KT 33/12 A3014 RMK A01 T03270117  RH  028%=      5-min Rain = 0
KUM1 142317Z 04005KT 33/12 A3014 RMK A01 T03260117  RH  028%=      5-min Rain = 0
KUM1 142318Z 07003KT 32/12 A3014 RMK A01 T03230116  RH  028%=      5-min Rain = 0
KUM1 142319Z 06002KT 32/12 A3014 RMK A01 T03210117  RH  029%=      5-min Rain = 0
KUM1 142320Z 04004KT 32/12 A3014 RMK A01 T03220117  RH  029%=      5-min Rain = 0
KUM1 142321Z 04003KT 32/12 A3014 RMK A01 T03230116  RH  028%=      5-min Rain = 0
KUM1 142322Z 03002KT 32/12 A3014 RMK A01 T03240119  RH  029%=      5-min Rain = 0
KUM1 142323Z 35002KT 33/12 A3014 RMK A01 T03250119  RH  028%=      5-min Rain = 0
KUM1 142324Z 35002KT 33/12 A3014 RMK A01 T03260118  RH  028%=      5-min Rain = 0
KUM1 142325Z 36002KT 33/12 A3014 RMK A01 T03250117  RH  028%=      5-min Rain = 0
KUM1 142326Z 04002KT 32/12 A3014 RMK A01 T03240118  RH  028%=      5-min Rain = 0
KUM1 142327Z 35002KT 33/12 A3014 RMK A01 T03250119  RH  028%=      5-min Rain = 0
KUM1 142328Z 01002KT 33/12 A3014 RMK A01 T03270120  RH  028%=      5-min Rain = 0
KUM1 142329Z 35001KT 33/12 A3014 RMK A01 T03270119  RH  028%=      5-min Rain = 0
KUM1 142330Z 01001KT 33/12 A3014 RMK A01 T03260120  RH  028%=      5-min Rain = 0
KUM1 142331Z 04001KT 33/12 A3014 RMK A01 T03260119  RH  028%=      5-min Rain = 0
KUM1 142332Z 04000KT 33/12 A3014 RMK A01 T03260119  RH  028%=      5-min Rain = 0
KUM1 142333Z 01000KT 33/12 A3014 RMK A01 T03270120  RH  028%=      5-min Rain = 0
KUM1 142334Z 27001KT 33/12 A3014 RMK A01 T03290120  RH  028%=      5-min Rain = 0
KUM1 142335Z 31002KT 33/12 A3014 RMK A01 T03300120  RH  028%=      5-min Rain = 0
KUM1 142336Z 00003KT 33/12 A3014 RMK A01 T03310119  RH  028%=      5-min Rain = 0
KUM1 142337Z 03001KT 33/12 A3014 RMK A01 T03280119  RH  028%=      5-min Rain = 0
KUM1 142338Z 03002KT 33/12 A3014 RMK A01 T03260119  RH  028%=      5-min Rain = 0
KUM1 142339Z 02002KT 33/12 A3014 RMK A01 T03260119  RH  028%=      5-min Rain = 0
KUM1 142340Z 36002KT 33/12 A3014 RMK A01 T03250119  RH  028%=      5-min Rain = 0
KUM1 142341Z 02003KT 33/12 A3014 RMK A01 T03250119  RH  029%=      5-min Rain = 0
KUM1 142342Z 04004KT 32/12 A3014 RMK A01 T03240119  RH  028%=      5-min Rain = 0
KUM1 142343Z 03003KT 33/12 A3013 RMK A01 T03260118  RH  028%=      5-min Rain = 0
KUM1 142344Z 03003KT 33/12 A3013 RMK A01 T03260118  RH  028%=      5-min Rain = 0
KUM1 142345Z 02005KT 33/12 A3013 RMK A01 T03260118  RH  028%=      5-min Rain = 0
KUM1 142346Z 04005KT 33/12 A3013 RMK A01 T03280115  RH  027%=      5-min Rain = 0
KUM1 142347Z 06004KT 33/12 A3013 RMK A01 T03270115  RH  027%=      5-min Rain = 0
KUM1 142348Z 06005KT 33/12 A3013 RMK A01 T03260115  RH  027%=      5-min Rain = 0
KUM1 142349Z 05005KT 33/12 A3014 RMK A01 T03260115  RH  028%=      5-min Rain = 0
KUM1 142350Z 03005KT 33/12 A3014 RMK A01 T03270115  RH  027%=      5-min Rain = 0
KUM1 142351Z 07005KT 33/12 A3014 RMK A01 T03270115  RH  027%=      5-min Rain = 0
KUM1 142352Z 07005KT 33/12 A3014 RMK A01 T03260116  RH  028%=      5-min Rain = 0
KUM1 142353Z 06006KT 33/12 A3014 RMK A01 T03260115  RH  028%=      5-min Rain = 0
KUM1 142354Z 07006KT 32/11 A3014 RMK A01 T03230114  RH  028%=      5-min Rain = 0
KUM1 142355Z 07005KT 32/12 A3014 RMK A01 T03220116  RH  028%=      5-min Rain = 0
KUM1 142356Z 07006KT 32/12 A3014 RMK A01 T03230117  RH  028%=      5-min Rain = 0
KUM1 142357Z 10006KT 32/12 A3014 RMK A01 T03240117  RH  028%=      5-min Rain = 0
KUM1 142358Z 09004KT 32/12 A3014 RMK A01 T03240116  RH  028%=      5-min Rain = 0
KUM1 142359Z 06003KT 32/12 A3014 RMK A01 T03240116  RH  028%=      5-min Rain = 0
KUM1 150000Z 10001KT 32/12 A3014 RMK A01 T03240115  RH  028%=      5-min Rain = 0
KUM1 150001Z 08002KT 32/12 A3014 RMK A01 T03230115  RH  028%=      5-min Rain = 0
KUM1 150002Z 06004KT 32/12 A3014 RMK A01 T03230115  RH  028%=      5-min Rain = 0
KUM1 150003Z 05005KT 32/12 A3014 RMK A01 T03230116  RH  028%=      5-min Rain = 0
KUM1 150004Z 05005KT 32/12 A3014 RMK A01 T03240115  RH  028%=      5-min Rain = 0
KUM1 150005Z 05006KT 32/12 A3014 RMK A01 T03240115  RH  028%=      5-min Rain = 0
KUM1 150006Z 05004KT 32/12 A3014 RMK A01 T03230116  RH  028%=      5-min Rain = 0
KUM1 150007Z 02004KT 32/12 A3014 RMK A01 T03230116  RH  028%=      5-min Rain = 0
KUM1 150008Z 01004KT 32/12 A3014 RMK A01 T03230117  RH  028%=      5-min Rain = 0
KUM1 150009Z 00003KT 32/12 A3014 RMK A01 T03220117  RH  028%=      5-min Rain = 0
KUM1 150010Z 00003KT 32/12 A3013 RMK A01 T03220118  RH  029%=      5-min Rain = 0
KUM1 150011Z 35004KT 32/12 A3013 RMK A01 T03220117  RH  029%=      5-min Rain = 0
KUM1 150012Z 34004KT 32/12 A3013 RMK A01 T03230116  RH  028%=      5-min Rain = 0
KUM1 150013Z 35006KT 32/12 A3013 RMK A01 T03240116  RH  028%=      5-min Rain = 0
KUM1 150014Z 35003KT 33/12 A3014 RMK A01 T03250116  RH  028%=      5-min Rain = 0
KUM1 150015Z 36002KT 32/12 A3014 RMK A01 T03230115  RH  028%=      5-min Rain = 0
KUM1 150016Z 04001KT 32/12 A3014 RMK A01 T03220115  RH  028%=      5-min Rain = 0
KUM1 150017Z 08001KT 32/12 A3014 RMK A01 T03220115  RH  028%=      5-min Rain = 0
KUM1 150018Z 08002KT 32/12 A3014 RMK A01 T03220116  RH  028%=      5-min Rain = 0
KUM1 150019Z 10003KT 32/12 A3014 RMK A01 T03220116  RH  028%=      5-min Rain = 0
KUM1 150020Z 11003KT 32/12 A3014 RMK A01 T03210115  RH  028%=      5-min Rain = 0
KUM1 150021Z 13002KT 32/12 A3014 RMK A01 T03210115  RH  028%=      5-min Rain = 0
KUM1 150022Z 14002KT 32/11 A3014 RMK A01 T03200114  RH  028%=      5-min Rain = 0
KUM1 150023Z 17002KT 32/12 A3014 RMK A01 T03200115  RH  028%=      5-min Rain = 0
KUM1 150024Z 16002KT 32/11 A3014 RMK A01 T03210114  RH  028%=      5-min Rain = 0
KUM1 150025Z 18002KT 32/11 A3014 RMK A01 T03210114  RH  028%=      5-min Rain = 0
KUM1 150026Z 21003KT 32/11 A3014 RMK A01 T03210114  RH  028%=      5-min Rain = 0
KUM1 150027Z 22001KT 32/11 A3014 RMK A01 T03210114  RH  028%=      5-min Rain = 0
KUM1 150028Z 24000KT 32/11 A3014 RMK A01 T03200114  RH  028%=      5-min Rain = 0
KUM1 150029Z 24000KT 32/11 A3014 RMK A01 T03200114  RH  028%=      5-min Rain = 0
KUM1 150030Z 00000KT 32/11 A3014 RMK A01 T03210114  RH  028%=      5-min Rain = 0
KUM1 150031Z 09000KT 32/11 A3014 RMK A01 T03220114  RH  028%=      5-min Rain = 0
KUM1 150032Z 08002KT 32/12 A3014 RMK A01 T03230115  RH  028%=      5-min Rain = 0
KUM1 150033Z 09002KT 32/12 A3014 RMK A01 T03240115  RH  028%=      5-min Rain = 0
KUM1 150034Z 05002KT 32/12 A3014 RMK A01 T03230116  RH  028%=      5-min Rain = 0
KUM1 150035Z 04004KT 32/11 A3014 RMK A01 T03220114  RH  028%=      5-min Rain = 0
KUM1 150036Z 07004KT 32/12 A3014 RMK A01 T03210115  RH  028%=      5-min Rain = 0
KUM1 150037Z 08003KT 32/11 A3014 RMK A01 T03200114  RH  028%=      5-min Rain = 0
KUM1 150038Z 07002KT 32/11 A3014 RMK A01 T03200113  RH  028%=      5-min Rain = 0
KUM1 150039Z 07002KT 32/11 A3014 RMK A01 T03180111  RH  028%=      5-min Rain = 0
KUM1 150040Z 06002KT 32/11 A3014 RMK A01 T03170111  RH  028%=      5-min Rain = 0
KUM1 150041Z 07002KT 32/11 A3014 RMK A01 T03170112  RH  028%=      5-min Rain = 0
KUM1 150042Z 06002KT 32/11 A3014 RMK A01 T03160111  RH  029%=      5-min Rain = 0
KUM1 150043Z 07002KT 32/11 A3014 RMK A01 T03150112  RH  029%=      5-min Rain = 0
KUM1 150044Z 07003KT 31/11 A3014 RMK A01 T03140113  RH  029%=      5-min Rain = 0
KUM1 150045Z 06002KT 31/11 A3014 RMK A01 T03130112  RH  029%=      5-min Rain = 0
KUM1 150046Z 07003KT 31/11 A3014 RMK A01 T03130113  RH  029%=      5-min Rain = 0
KUM1 150047Z 08003KT 31/11 A3014 RMK A01 T03120113  RH  029%=      5-min Rain = 0
KUM1 150048Z 09003KT 31/11 A3014 RMK A01 T03110114  RH  030%=      5-min Rain = 0
KUM1 150049Z 09003KT 31/11 A3014 RMK A01 T03110113  RH  030%=      5-min Rain = 0
KUM1 150050Z 10002KT 31/11 A3014 RMK A01 T03100114  RH  030%=      5-min Rain = 0
KUM1 150051Z 10002KT 31/11 A3014 RMK A01 T03100113  RH  030%=      5-min Rain = 0
KUM1 150052Z 10002KT 31/11 A3014 RMK A01 T03090113  RH  030%=      5-min Rain = 0
KUM1 150053Z 09001KT 31/11 A3014 RMK A01 T03090112  RH  030%=      5-min Rain = 0
KUM1 150054Z 08001KT 31/11 A3014 RMK A01 T03090111  RH  030%=      5-min Rain = 0
KUM1 150055Z 08000KT 31/11 A3014 RMK A01 T03090111  RH  030%=      5-min Rain = 0
KUM1 150056Z 09000KT 31/11 A3014 RMK A01 T03090110  RH  029%=      5-min Rain = 0
KUM1 150057Z 09001KT 31/11 A3014 RMK A01 T03090111  RH  029%=      5-min Rain = 0
KUM1 150058Z 09001KT 31/12 A3014 RMK A01 T03090115  RH  030%=      5-min Rain = 0
KUM1 150059Z 09001KT 31/12 A3014 RMK A01 T03080115  RH  031%=      5-min Rain = 0
KUM1 150100Z 10001KT 31/11 A3014 RMK A01 T03070113  RH  030%=      5-min Rain = 0
KUM1 150101Z 11002KT 31/11 A3014 RMK A01 T03060113  RH  031%=      5-min Rain = 0
KUM1 150102Z 12002KT 31/11 A3014 RMK A01 T03050114  RH  031%=      5-min Rain = 0
KUM1 150103Z 12002KT 31/11 A3015 RMK A01 T03050114  RH  031%=      5-min Rain = 0
KUM1 150104Z 12003KT 30/12 A3015 RMK A01 T03040115  RH  031%=      5-min Rain = 0
KUM1 150105Z 12004KT 30/12 A3015 RMK A01 T03030115  RH  031%=      5-min Rain = 0
KUM1 150106Z 12004KT 30/12 A3015 RMK A01 T03020116  RH  032%=      5-min Rain = 0
KUM1 150107Z 12004KT 30/12 A3015 RMK A01 T03010117  RH  032%=      5-min Rain = 0
KUM1 150108Z 12005KT 30/12 A3014 RMK A01 T02980117  RH  033%=      5-min Rain = 0
KUM1 150109Z 11005KT 30/12 A3014 RMK A01 T02960118  RH  033%=      5-min Rain = 0
KUM1 150110Z 11005KT 29/12 A3014 RMK A01 T02940117  RH  034%=      5-min Rain = 0
KUM1 150111Z 11004KT 29/12 A3014 RMK A01 T02940118  RH  034%=      5-min Rain = 0
KUM1 150112Z 10004KT 29/12 A3014 RMK A01 T02930118  RH  034%=      5-min Rain = 0
KUM1 150113Z 10004KT 29/12 A3014 RMK A01 T02930118  RH  034%=      5-min Rain = 0
KUM1 150114Z 10003KT 29/12 A3014 RMK A01 T02920118  RH  034%=      5-min Rain = 0
KUM1 150115Z 10004KT 29/12 A3014 RMK A01 T02920118  RH  034%=      5-min Rain = 0
KUM1 150116Z 10004KT 29/12 A3014 RMK A01 T02920118  RH  034%=      5-min Rain = 0
KUM1 150117Z 10004KT 29/12 A3014 RMK A01 T02910117  RH  034%=      5-min Rain = 0
KUM1 150118Z 10005KT 29/12 A3014 RMK A01 T02910117  RH  034%=      5-min Rain = 0
KUM1 150119Z 09004KT 29/12 A3014 RMK A01 T02910117  RH  034%=      5-min Rain = 0
KUM1 150120Z 09005KT 29/12 A3015 RMK A01 T02900117  RH  034%=      5-min Rain = 0
KUM1 150121Z 10005KT 29/12 A3015 RMK A01 T02890117  RH  034%=      5-min Rain = 0
KUM1 150122Z 10004KT 29/12 A3015 RMK A01 T02880116  RH  034%=      5-min Rain = 0
KUM1 150123Z 09004KT 29/12 A3015 RMK A01 T02880116  RH  034%=      5-min Rain = 0
KUM1 150124Z 09004KT 29/12 A3015 RMK A01 T02890116  RH  034%=      5-min Rain = 0
KUM1 150125Z 09004KT 29/12 A3015 RMK A01 T02900116  RH  034%=      5-min Rain = 0
KUM1 150126Z 10005KT 29/12 A3015 RMK A01 T02910117  RH  034%=      5-min Rain = 0
KUM1 150127Z 11005KT 29/12 A3015 RMK A01 T02900117  RH  034%=      5-min Rain = 0
KUM1 150128Z 10005KT 29/12 A3015 RMK A01 T02890117  RH  035%=      5-min Rain = 0
KUM1 150129Z 10006KT 29/12 A3015 RMK A01 T02880118  RH  035%=      5-min Rain = 0
KUM1 150130Z 09006KT 29/12 A3016 RMK A01 T02870118  RH  035%=      5-min Rain = 0
KUM1 150131Z 09005KT 29/12 A3016 RMK A01 T02870118  RH  035%=      5-min Rain = 0
KUM1 150132Z 08005KT 29/12 A3016 RMK A01 T02870118  RH  035%=      5-min Rain = 0
KUM1 150133Z 08005KT 29/12 A3016 RMK A01 T02870118  RH  035%=      5-min Rain = 0
KUM1 150134Z 08005KT 29/12 A3016 RMK A01 T02860119  RH  036%=      5-min Rain = 0
KUM1 150135Z 08006KT 28/12 A3016 RMK A01 T02840120  RH  036%=      5-min Rain = 0
KUM1 150136Z 08006KT 28/12 A3016 RMK A01 T02830120  RH  037%=      5-min Rain = 0
KUM1 150137Z 08005KT 28/12 A3016 RMK A01 T02810121  RH  037%=      5-min Rain = 0
KUM1 150138Z 08005KT 28/12 A3016 RMK A01 T02800121  RH  037%=      5-min Rain = 0
KUM1 150139Z 08005KT 28/12 A3016 RMK A01 T02790121  RH  038%=      5-min Rain = 0
KUM1 150140Z 09005KT 28/12 A3016 RMK A01 T02780121  RH  038%=      5-min Rain = 0
KUM1 150141Z 09004KT 28/12 A3016 RMK A01 T02770121  RH  038%=      5-min Rain = 0
KUM1 150142Z 09004KT 28/12 A3016 RMK A01 T02760122  RH  038%=      5-min Rain = 0
KUM1 150143Z 09004KT 28/12 A3016 RMK A01 T02760122  RH  038%=      5-min Rain = 0
KUM1 150144Z 09005KT 28/12 A3016 RMK A01 T02760122  RH  039%=      5-min Rain = 0
KUM1 150145Z 09005KT 28/12 A3016 RMK A01 T02750122  RH  039%=      5-min Rain = 0
KUM1 150146Z 09005KT 27/12 A3016 RMK A01 T02740122  RH  039%=      5-min Rain = 0
KUM1 150147Z 10005KT 27/12 A3016 RMK A01 T02730122  RH  039%=      5-min Rain = 0
KUM1 150148Z 10005KT 27/12 A3016 RMK A01 T02720122  RH  039%=      5-min Rain = 0
KUM1 150149Z 10004KT 27/12 A3016 RMK A01 T02720123  RH  039%=      5-min Rain = 0
KUM1 150150Z 09005KT 27/12 A3016 RMK A01 T02720123  RH  039%=      5-min Rain = 0
KUM1 150151Z 10005KT 27/12 A3016 RMK A01 T02720122  RH  039%=      5-min Rain = 0
KUM1 150152Z 10004KT 27/12 A3016 RMK A01 T02720122  RH  039%=      5-min Rain = 0
KUM1 150153Z 10004KT 27/12 A3016 RMK A01 T02720122  RH  039%=      5-min Rain = 0
KUM1 150154Z 10004KT 27/12 A3016 RMK A01 T02720122  RH  039%=      5-min Rain = 0
KUM1 150155Z 10005KT 27/12 A3016 RMK A01 T02710121  RH  039%=      5-min Rain = 0
KUM1 150156Z 10004KT 27/12 A3017 RMK A01 T02710121  RH  039%=      5-min Rain = 0
KUM1 150157Z 10005KT 27/12 A3017 RMK A01 T02710121  RH  039%=      5-min Rain = 0
KUM1 150158Z 10005KT 27/12 A3017 RMK A01 T02700120  RH  039%=      5-min Rain = 0
KUM1 150159Z 10004KT 27/12 A3017 RMK A01 T02700120  RH  039%=      5-min Rain = 0
KUM1 150200Z 11005KT 27/12 A3017 RMK A01 T02700120  RH  039%=      5-min Rain = 0
KUM1 150201Z 11005KT 27/12 A3016 RMK A01 T02690120  RH  039%=      5-min Rain = 0
KUM1 150202Z 10005KT 27/12 A3016 RMK A01 T02690120  RH  040%=      5-min Rain = 0
KUM1 150203Z 11005KT 27/12 A3016 RMK A01 T02690120  RH  040%=      5-min Rain = 0
KUM1 150204Z 11006KT 27/12 A3017 RMK A01 T02680120  RH  040%=      5-min Rain = 0
KUM1 150205Z 11006KT 27/12 A3017 RMK A01 T02670120  RH  040%=      5-min Rain = 0
KUM1 150206Z 11006KT 27/12 A3017 RMK A01 T02670120  RH  040%=      5-min Rain = 0
KUM1 150207Z 11007KT 27/12 A3017 RMK A01 T02660120  RH  040%=      5-min Rain = 0
KUM1 150208Z 11006KT 27/12 A3017 RMK A01 T02650120  RH  040%=      5-min Rain = 0
KUM1 150209Z 11006KT 27/12 A3017 RMK A01 T02660120  RH  040%=      5-min Rain = 0
KUM1 150210Z 11005KT 27/12 A3017 RMK A01 T02670120  RH  040%=      5-min Rain = 0
KUM1 150211Z 11005KT 27/12 A3017 RMK A01 T02680120  RH  040%=      5-min Rain = 0
KUM1 150212Z 11005KT 27/12 A3017 RMK A01 T02680120  RH  040%=      5-min Rain = 0
KUM1 150213Z 11005KT 27/12 A3017 RMK A01 T02680120  RH  040%=      5-min Rain = 0
KUM1 150214Z 10004KT 27/12 A3017 RMK A01 T02680120  RH  040%=      5-min Rain = 0
KUM1 150215Z 11005KT 27/12 A3017 RMK A01 T02680120  RH  040%=      5-min Rain = 0
KUM1 150216Z 11006KT 27/12 A3017 RMK A01 T02680119  RH  040%=      5-min Rain = 0
KUM1 150217Z 11004KT 27/12 A3017 RMK A01 T02680119  RH  040%=      5-min Rain = 0
KUM1 150218Z 10004KT 27/12 A3017 RMK A01 T02690120  RH  040%=      5-min Rain = 0
KUM1 150219Z 11005KT 27/12 A3017 RMK A01 T02680120  RH  040%=      5-min Rain = 0
KUM1 150220Z 11004KT 27/12 A3017 RMK A01 T02670120  RH  040%=      5-min Rain = 0
KUM1 150221Z 10004KT 27/12 A3017 RMK A01 T02670120  RH  040%=      5-min Rain = 0
KUM1 150222Z 11004KT 27/12 A3017 RMK A01 T02660119  RH  040%=      5-min Rain = 0
KUM1 150223Z 11005KT 27/12 A3017 RMK A01 T02650119  RH  040%=      5-min Rain = 0
KUM1 150224Z 11005KT 27/12 A3017 RMK A01 T02650119  RH  040%=      5-min Rain = 0
KUM1 150225Z 11005KT 27/12 A3017 RMK A01 T02650119  RH  040%=      5-min Rain = 0
KUM1 150226Z 11005KT 26/12 A3017 RMK A01 T02640119  RH  041%=      5-min Rain = 0
KUM1 150227Z 11005KT 26/12 A3017 RMK A01 T02630119  RH  041%=      5-min Rain = 0
KUM1 150228Z 11005KT 26/12 A3017 RMK A01 T02610119  RH  041%=      5-min Rain = 0
KUM1 150229Z 11005KT 26/12 A3017 RMK A01 T02600119  RH  042%=      5-min Rain = 0
KUM1 150230Z 11005KT 26/12 A3017 RMK A01 T02590120  RH  042%=      5-min Rain = 0
KUM1 150231Z 11005KT 26/12 A3017 RMK A01 T02570120  RH  042%=      5-min Rain = 0
KUM1 150232Z 11005KT 26/12 A3017 RMK A01 T02560120  RH  043%=      5-min Rain = 0
KUM1 150233Z 11005KT 26/12 A3017 RMK A01 T02550120  RH  043%=      5-min Rain = 0
KUM1 150234Z 12006KT 26/12 A3017 RMK A01 T02550120  RH  043%=      5-min Rain = 0
KUM1 150235Z 12006KT 26/12 A3017 RMK A01 T02550120  RH  043%=      5-min Rain = 0
KUM1 150236Z 12006KT 26/12 A3017 RMK A01 T02550120  RH  043%=      5-min Rain = 0
KUM1 150237Z 12006KT 25/12 A3017 RMK A01 T02540120  RH  043%=      5-min Rain = 0
KUM1 150238Z 12006KT 25/12 A3017 RMK A01 T02530120  RH  043%=      5-min Rain = 0
KUM1 150239Z 12006KT 25/12 A3017 RMK A01 T02520120  RH  044%=      5-min Rain = 0
KUM1 150240Z 11006KT 25/12 A3018 RMK A01 T02510120  RH  044%=      5-min Rain = 0
KUM1 150241Z 11006KT 25/12 A3018 RMK A01 T02500119  RH  044%=      5-min Rain = 0
KUM1 150242Z 11007KT 25/12 A3018 RMK A01 T02500119  RH  044%=      5-min Rain = 0
KUM1 150243Z 12007KT 25/12 A3018 RMK A01 T02510119  RH  044%=      5-min Rain = 0
KUM1 150244Z 12008KT 25/12 A3017 RMK A01 T02520119  RH  043%=      5-min Rain = 0
KUM1 150245Z 12007KT 25/12 A3017 RMK A01 T02530119  RH  043%=      5-min Rain = 0
KUM1 150246Z 13008KT 25/12 A3017 RMK A01 T02530119  RH  043%=      5-min Rain = 0
KUM1 150247Z 13007KT 25/12 A3018 RMK A01 T02530118  RH  043%=      5-min Rain = 0
KUM1 150248Z 13008KT 25/12 A3018 RMK A01 T02540118  RH  043%=      5-min Rain = 0
KUM1 150249Z 12008KT 26/12 A3018 RMK A01 T02550118  RH  042%=      5-min Rain = 0
KUM1 150250Z 12008KT 26/12 A3018 RMK A01 T02560118  RH  042%=      5-min Rain = 0
KUM1 150251Z 12007KT 26/12 A3018 RMK A01 T02570118  RH  042%=      5-min Rain = 0
KUM1 150252Z 12007KT 26/12 A3018 RMK A01 T02580118  RH  042%=      5-min Rain = 0
KUM1 150253Z 12007KT 26/12 A3018 RMK A01 T02580117  RH  042%=      5-min Rain = 0
KUM1 150254Z 12007KT 26/12 A3018 RMK A01 T02580117  RH  042%=      5-min Rain = 0
KUM1 150255Z 12007KT 26/12 A3018 RMK A01 T02580117  RH  041%=      5-min Rain = 0
KUM1 150256Z 12007KT 26/12 A3018 RMK A01 T02580117  RH  041%=      5-min Rain = 0
KUM1 150257Z 13007KT 26/12 A3018 RMK A01 T02580118  RH  041%=      5-min Rain = 0
KUM1 150258Z 13007KT 26/12 A3018 RMK A01 T02580117  RH  041%=      5-min Rain = 0
KUM1 150259Z 12006KT 26/12 A3018 RMK A01 T02580117  RH  041%=      5-min Rain = 0
KUM1 150300Z 12007KT 26/12 A3018 RMK A01 T02580117  RH  041%=      5-min Rain = 0
KUM1 150301Z 13006KT 26/12 A3018 RMK A01 T02580117  RH  041%=      5-min Rain = 0
KUM1 150302Z 12007KT 26/12 A3018 RMK A01 T02580117  RH  041%=      5-min Rain = 0
KUM1 150303Z 13007KT 26/12 A3018 RMK A01 T02580116  RH  041%=      5-min Rain = 0
KUM1 150304Z 12007KT 26/12 A3018 RMK A01 T02590116  RH  041%=      5-min Rain = 0
KUM1 150305Z 13007KT 26/12 A3018 RMK A01 T02600117  RH  041%=      5-min Rain = 0
KUM1 150306Z 13007KT 26/12 A3019 RMK A01 T02600117  RH  041%=      5-min Rain = 0
KUM1 150307Z 13006KT 26/12 A3019 RMK A01 T02610117  RH  041%=      5-min Rain = 0
KUM1 150308Z 13006KT 26/12 A3019 RMK A01 T02610116  RH  041%=      5-min Rain = 0
KUM1 150309Z 13006KT 26/12 A3019 RMK A01 T02610116  RH  041%=      5-min Rain = 0
KUM1 150310Z 13006KT 26/12 A3019 RMK A01 T02610116  RH  040%=      5-min Rain = 0
KUM1 150311Z 13006KT 26/12 A3019 RMK A01 T02610116  RH  040%=      5-min Rain = 0
KUM1 150312Z 13006KT 26/12 A3019 RMK A01 T02610116  RH  040%=      5-min Rain = 0
KUM1 150313Z 12007KT 26/12 A3019 RMK A01 T02610116  RH  040%=      5-min Rain = 0
KUM1 150314Z 12006KT 26/12 A3019 RMK A01 T02610116  RH  040%=      5-min Rain = 0
KUM1 150315Z 12007KT 26/12 A3019 RMK A01 T02610116  RH  040%=      5-min Rain = 0
KUM1 150316Z 12006KT 26/12 A3019 RMK A01 T02610117  RH  041%=      5-min Rain = 0
KUM1 150317Z 12006KT 26/12 A3019 RMK A01 T02610117  RH  041%=      5-min Rain = 0
KUM1 150318Z 12006KT 26/12 A3019 RMK A01 T02610117  RH  041%=      5-min Rain = 0
KUM1 150319Z 12007KT 26/12 A3019 RMK A01 T02610118  RH  041%=      5-min Rain = 0
KUM1 150320Z 13007KT 26/12 A3019 RMK A01 T02610118  RH  041%=      5-min Rain = 0
KUM1 150321Z 13007KT 26/12 A3019 RMK A01 T02600118  RH  041%=      5-min Rain = 0
KUM1 150322Z 13007KT 26/12 A3019 RMK A01 T02600118  RH  041%=      5-min Rain = 0
KUM1 150323Z 13007KT 26/12 A302 RMK A01 T02590118  RH  041%=      5-min Rain = 0
KUM1 150324Z 13007KT 26/12 A302 RMK A01 T02600118  RH  041%=      5-min Rain = 0
KUM1 150325Z 13008KT 26/12 A302 RMK A01 T02600118  RH  041%=      5-min Rain = 0
KUM1 150326Z 13008KT 26/12 A302 RMK A01 T02600118  RH  041%=      5-min Rain = 0
KUM1 150327Z 13008KT 26/12 A302 RMK A01 T02610119  RH  041%=      5-min Rain = 0
KUM1 150328Z 14007KT 26/12 A302 RMK A01 T02610119  RH  041%=      5-min Rain = 0
KUM1 150329Z 14007KT 26/12 A302 RMK A01 T02620119  RH  041%=      5-min Rain = 0
KUM1 150330Z 14007KT 26/12 A302 RMK A01 T02620119  RH  041%=      5-min Rain = 0
KUM1 150331Z 14007KT 26/12 A302 RMK A01 T02620120  RH  041%=      5-min Rain = 0
KUM1 150332Z 14008KT 26/12 A302 RMK A01 T02620120  RH  041%=      5-min Rain = 0
KUM1 150333Z 14008KT 26/12 A302 RMK A01 T02620120  RH  041%=      5-min Rain = 0
KUM1 150334Z 14008KT 26/12 A302 RMK A01 T02620120  RH  041%=      5-min Rain = 0
KUM1 150335Z 14009KT 26/12 A302 RMK A01 T02620120  RH  041%=      5-min Rain = 0
KUM1 150336Z 14008KT 26/12 A3021 RMK A01 T02630121  RH  041%=      5-min Rain = 0
KUM1 150337Z 14008KT 26/12 A3021 RMK A01 T02630121  RH  041%=      5-min Rain = 0
KUM1 150338Z 14008KT 26/12 A3021 RMK A01 T02630121  RH  041%=      5-min Rain = 0
KUM1 150339Z 14008KT 26/12 A3021 RMK A01 T02620121  RH  041%=      5-min Rain = 0
KUM1 150340Z 14008KT 26/12 A3021 RMK A01 T02620121  RH  041%=      5-min Rain = 0
KUM1 150341Z 14009KT 26/12 A3021 RMK A01 T02620121  RH  041%=      5-min Rain = 0
KUM1 150342Z 14008KT 26/12 A3021 RMK A01 T02610121  RH  042%=      5-min Rain = 0
KUM1 150343Z 14010KT 26/12 A3021 RMK A01 T02620121  RH  042%=      5-min Rain = 0
KUM1 150344Z 14008KT 26/12 A3021 RMK A01 T02610121  RH  042%=      5-min Rain = 0
KUM1 150345Z 14008KT 26/12 A3021 RMK A01 T02610121  RH  042%=      5-min Rain = 0
KUM1 150346Z 14008KT 26/12 A3021 RMK A01 T02610121  RH  042%=      5-min Rain = 0
KUM1 150347Z 14008KT 26/12 A3021 RMK A01 T02600121  RH  042%=      5-min Rain = 0
KUM1 150348Z 14008KT 26/12 A3021 RMK A01 T02600122  RH  042%=      5-min Rain = 0
KUM1 150349Z 14008KT 26/12 A3021 RMK A01 T02590122  RH  042%=      5-min Rain = 0
KUM1 150350Z 14008KT 26/12 A3021 RMK A01 T02590121  RH  042%=      5-min Rain = 0
KUM1 150351Z 14008KT 26/12 A3021 RMK A01 T02590122  RH  043%=      5-min Rain = 0
KUM1 150352Z 14009KT 26/12 A3021 RMK A01 T02580122  RH  043%=      5-min Rain = 0
KUM1 150353Z 13009KT 26/12 A3021 RMK A01 T02580122  RH  043%=      5-min Rain = 0
KUM1 150354Z 13008KT 26/12 A3021 RMK A01 T02580123  RH  043%=      5-min Rain = 0
KUM1 150355Z 13009KT 26/12 A3021 RMK A01 T02580123  RH  043%=      5-min Rain = 0
KUM1 150356Z 13008KT 26/12 A3021 RMK A01 T02570122  RH  043%=      5-min Rain = 0
KUM1 150357Z 13008KT 26/12 A3021 RMK A01 T02580123  RH  043%=      5-min Rain = 0
KUM1 150358Z 13008KT 26/12 A3021 RMK A01 T02580123  RH  043%=      5-min Rain = 0
KUM1 150359Z 13008KT 26/12 A3021 RMK A01 T02580124  RH  043%=      5-min Rain = 0
KUM1 150400Z 13008KT 26/12 A3021 RMK A01 T02570123  RH  043%=      5-min Rain = 0
KUM1 150401Z 13008KT 26/12 A3021 RMK A01 T02570123  RH  044%=      5-min Rain = 0
KUM1 150402Z 13008KT 26/12 A3021 RMK A01 T02570124  RH  044%=      5-min Rain = 0
KUM1 150403Z 13009KT 26/12 A3021 RMK A01 T02560124  RH  044%=      5-min Rain = 0
KUM1 150404Z 13008KT 26/12 A3021 RMK A01 T02570124  RH  044%=      5-min Rain = 0
KUM1 150405Z 13008KT 26/12 A3021 RMK A01 T02570124  RH  044%=      5-min Rain = 0
KUM1 150406Z 13008KT 26/12 A3021 RMK A01 T02570124  RH  044%=      5-min Rain = 0
KUM1 150407Z 13008KT 26/12 A3021 RMK A01 T02570124  RH  044%=      5-min Rain = 0
KUM1 150408Z 13009KT 26/13 A3021 RMK A01 T02570125  RH  044%=      5-min Rain = 0
KUM1 150409Z 13009KT 26/13 A3021 RMK A01 T02570125  RH  044%=      5-min Rain = 0
KUM1 150410Z 13008KT 26/13 A3021 RMK A01 T02570125  RH  044%=      5-min Rain = 0
KUM1 150411Z 13009KT 26/13 A3021 RMK A01 T02560125  RH  044%=      5-min Rain = 0
KUM1 150412Z 14008KT 26/13 A3021 RMK A01 T02560125  RH  044%=      5-min Rain = 0
KUM1 150413Z 13009KT 26/13 A3021 RMK A01 T02560125  RH  044%=      5-min Rain = 0
KUM1 150414Z 14009KT 26/13 A3021 RMK A01 T02560125  RH  044%=      5-min Rain = 0
KUM1 150415Z 13009KT 26/13 A3021 RMK A01 T02560125  RH  044%=      5-min Rain = 0
KUM1 150416Z 13008KT 26/13 A3021 RMK A01 T02570126  RH  044%=      5-min Rain = 0
KUM1 150417Z 13009KT 26/13 A3021 RMK A01 T02570125  RH  044%=      5-min Rain = 0
KUM1 150418Z 13009KT 26/13 A3021 RMK A01 T02570126  RH  044%=      5-min Rain = 0
KUM1 150419Z 13009KT 26/13 A3021 RMK A01 T02570126  RH  044%=      5-min Rain = 0
KUM1 150420Z 13008KT 26/13 A3021 RMK A01 T02570126  RH  044%=      5-min Rain = 0
KUM1 150421Z 13009KT 26/13 A3021 RMK A01 T02560126  RH  044%=      5-min Rain = 0
KUM1 150422Z 13008KT 26/13 A3021 RMK A01 T02560126  RH  045%=      5-min Rain = 0
KUM1 150423Z 12008KT 26/13 A3021 RMK A01 T02550126  RH  045%=      5-min Rain = 0
KUM1 150424Z 12008KT 26/13 A3021 RMK A01 T02550126  RH  045%=      5-min Rain = 0
KUM1 150425Z 13009KT 25/13 A3021 RMK A01 T02540126  RH  045%=      5-min Rain = 0
KUM1 150426Z 13009KT 25/13 A3021 RMK A01 T02540127  RH  045%=      5-min Rain = 0
KUM1 150427Z 13009KT 25/13 A3021 RMK A01 T02540127  RH  045%=      5-min Rain = 0
KUM1 150428Z 13008KT 25/13 A3021 RMK A01 T02540127  RH  045%=      5-min Rain = 0
KUM1 150429Z 13009KT 25/13 A3021 RMK A01 T02540127  RH  045%=      5-min Rain = 0
KUM1 150430Z 13010KT 25/13 A3021 RMK A01 T02540127  RH  045%=      5-min Rain = 0
KUM1 150431Z 13010KT 25/13 A3021 RMK A01 T02540127  RH  045%=      5-min Rain = 0
KUM1 150432Z 12010KT 25/13 A3021 RMK A01 T02540127  RH  045%=      5-min Rain = 0
KUM1 150433Z 12008KT 25/13 A3021 RMK A01 T02540127  RH  045%=      5-min Rain = 0
KUM1 150434Z 12009KT 25/13 A3021 RMK A01 T02530127  RH  045%=      5-min Rain = 0
KUM1 150435Z 13008KT 25/13 A3021 RMK A01 T02530127  RH  046%=      5-min Rain = 0
KUM1 150436Z 12009KT 25/13 A3021 RMK A01 T02520127  RH  046%=      5-min Rain = 0
KUM1 150437Z 12008KT 25/13 A3021 RMK A01 T02520128  RH  046%=      5-min Rain = 0
KUM1 150438Z 12008KT 25/13 A3021 RMK A01 T02510128  RH  046%=      5-min Rain = 0
KUM1 150439Z 12008KT 25/13 A3021 RMK A01 T02510128  RH  046%=      5-min Rain = 0
KUM1 150440Z 12009KT 25/13 A3021 RMK A01 T02510128  RH  047%=      5-min Rain = 0
KUM1 150441Z 12009KT 25/13 A3021 RMK A01 T02510129  RH  047%=      5-min Rain = 0
KUM1 150442Z 12009KT 25/13 A3021 RMK A01 T02510129  RH  047%=      5-min Rain = 0
KUM1 150443Z 12009KT 25/13 A3021 RMK A01 T02510129  RH  047%=      5-min Rain = 0
KUM1 150444Z 12009KT 25/13 A3021 RMK A01 T02510130  RH  047%=      5-min Rain = 0
KUM1 150445Z 12010KT 25/13 A3021 RMK A01 T02510130  RH  047%=      5-min Rain = 0
KUM1 150446Z 12010KT 25/13 A3021 RMK A01 T02510131  RH  047%=      5-min Rain = 0
KUM1 150447Z 13009KT 25/13 A3021 RMK A01 T02510131  RH  047%=      5-min Rain = 0
KUM1 150448Z 13008KT 25/13 A3021 RMK A01 T02510131  RH  047%=      5-min Rain = 0
KUM1 150449Z 12009KT 25/13 A3021 RMK A01 T02500131  RH  048%=      5-min Rain = 0
KUM1 150450Z 12009KT 25/13 A3021 RMK A01 T02500131  RH  048%=      5-min Rain = 0
KUM1 150451Z 12009KT 25/13 A3021 RMK A01 T02500132  RH  048%=      5-min Rain = 0
KUM1 150452Z 12010KT 25/13 A3021 RMK A01 T02500132  RH  048%=      5-min Rain = 0
KUM1 150453Z 12010KT 25/13 A3021 RMK A01 T02500132  RH  048%=      5-min Rain = 0
KUM1 150454Z 13009KT 25/13 A3021 RMK A01 T02500133  RH  048%=      5-min Rain = 0
KUM1 150455Z 13010KT 25/13 A3021 RMK A01 T02500133  RH  048%=      5-min Rain = 0
KUM1 150456Z 13009KT 25/13 A3021 RMK A01 T02500133  RH  048%=      5-min Rain = 0
KUM1 150457Z 13009KT 25/13 A3021 RMK A01 T02500133  RH  048%=      5-min Rain = 0
KUM1 150458Z 13009KT 25/13 A3021 RMK A01 T02500133  RH  048%=      5-min Rain = 0
KUM1 150459Z 13009KT 25/13 A3021 RMK A01 T02500133  RH  048%=      5-min Rain = 0

Page generated in 0.1298 seconds.